<?xml version="1.0" encoding="UTF-8" standalone="no" ?>
<gpx xmlns="http://www.topografix.com/GPX/1/1" xmlns:xsi="http://www.w3.org/2001/XMLSchema-instance" xsi:schemaLocation="http://www.topografix.com/GPX/1/1 http://www.topografix.com/GPX/1/1/gpx.xsd" version="1.1" creator="VisuGPX - https://www.visugpx.com">
  <metadata>
    <name>OCC VTT Canteleu </name>
  </metadata>
  <wpt lat="49.45189" lon="0.97249">
    <ele>31.2</ele>
  </wpt>
  <trk>
    <name><![CDATA[OCC VTT Canteleu ]]></name>
    <extensions>
      <line xmlns="http://www.topografix.com/GPX/gpx_style/0/2">
        <color>0000FF</color>
        <width>4</width>
      </line>
    </extensions>
    <trkseg>
      <trkpt lat="49.45216" lon="1.03071">
        <ele>130</ele>
        <time>2021-09-26T10:46:23.020Z</time>
      </trkpt>
      <trkpt lat="49.45218" lon="1.0306">
        <ele>131</ele>
        <time>2021-09-26T10:46:23.125Z</time>
      </trkpt>
      <trkpt lat="49.45222" lon="1.03058">
        <ele>131</ele>
        <time>2021-09-26T10:46:23.230Z</time>
      </trkpt>
      <trkpt lat="49.45227" lon="1.03061">
        <ele>131</ele>
        <time>2021-09-26T10:46:23.336Z</time>
      </trkpt>
      <trkpt lat="49.4528" lon="1.03142">
        <ele>132</ele>
        <time>2021-09-26T10:46:23.457Z</time>
      </trkpt>
      <trkpt lat="49.45282" lon="1.03148">
        <ele>132</ele>
        <time>2021-09-26T10:46:23.579Z</time>
      </trkpt>
      <trkpt lat="49.45286" lon="1.03174">
        <ele>133</ele>
        <time>2021-09-26T10:46:23.705Z</time>
      </trkpt>
      <trkpt lat="49.45293" lon="1.03183">
        <ele>133</ele>
        <time>2021-09-26T10:46:23.832Z</time>
      </trkpt>
      <trkpt lat="49.45301" lon="1.03181">
        <ele>134</ele>
        <time>2021-09-26T10:46:23.961Z</time>
      </trkpt>
      <trkpt lat="49.45309" lon="1.03173">
        <ele>135</ele>
        <time>2021-09-26T10:46:24.092Z</time>
      </trkpt>
      <trkpt lat="49.45317" lon="1.03168">
        <ele>135</ele>
        <time>2021-09-26T10:46:24.225Z</time>
      </trkpt>
      <trkpt lat="49.45345" lon="1.03168">
        <ele>136</ele>
        <time>2021-09-26T10:46:24.363Z</time>
      </trkpt>
      <trkpt lat="49.45393" lon="1.03164">
        <ele>137</ele>
        <time>2021-09-26T10:46:24.511Z</time>
      </trkpt>
      <trkpt lat="49.45435" lon="1.03163">
        <ele>137</ele>
        <time>2021-09-26T10:46:24.667Z</time>
      </trkpt>
      <trkpt lat="49.45478" lon="1.03164">
        <ele>138</ele>
        <time>2021-09-26T10:46:24.832Z</time>
      </trkpt>
      <trkpt lat="49.45521" lon="1.03155">
        <ele>140</ele>
        <time>2021-09-26T10:46:25.006Z</time>
      </trkpt>
      <trkpt lat="49.45532" lon="1.03154">
        <ele>140</ele>
        <time>2021-09-26T10:46:25.182Z</time>
      </trkpt>
      <trkpt lat="49.45573" lon="1.03162">
        <ele>141</ele>
        <time>2021-09-26T10:46:25.366Z</time>
      </trkpt>
      <trkpt lat="49.45611" lon="1.0316">
        <ele>142</ele>
        <time>2021-09-26T10:46:25.558Z</time>
      </trkpt>
      <trkpt lat="49.4564" lon="1.03161">
        <ele>143</ele>
        <time>2021-09-26T10:46:25.756Z</time>
      </trkpt>
      <trkpt lat="49.45671" lon="1.03159">
        <ele>143</ele>
        <time>2021-09-26T10:46:25.960Z</time>
      </trkpt>
      <trkpt lat="49.4576" lon="1.03146">
        <ele>144</ele>
        <time>2021-09-26T10:46:26.182Z</time>
      </trkpt>
      <trkpt lat="49.45801" lon="1.03145">
        <ele>145</ele>
        <time>2021-09-26T10:46:26.412Z</time>
      </trkpt>
      <trkpt lat="49.4581" lon="1.0313">
        <ele>145</ele>
        <time>2021-09-26T10:46:26.645Z</time>
      </trkpt>
      <trkpt lat="49.45814" lon="1.03119">
        <ele>146</ele>
        <time>2021-09-26T10:46:26.879Z</time>
      </trkpt>
      <trkpt lat="49.45817" lon="1.03107">
        <ele>146</ele>
        <time>2021-09-26T10:46:27.115Z</time>
      </trkpt>
      <trkpt lat="49.4582" lon="1.03077">
        <ele>147</ele>
        <time>2021-09-26T10:46:27.355Z</time>
      </trkpt>
      <trkpt lat="49.45821" lon="1.02965">
        <ele>147</ele>
        <time>2021-09-26T10:46:27.609Z</time>
      </trkpt>
      <trkpt lat="49.45819" lon="1.02907">
        <ele>147</ele>
        <time>2021-09-26T10:46:27.871Z</time>
      </trkpt>
      <trkpt lat="49.45813" lon="1.02832">
        <ele>147</ele>
        <time>2021-09-26T10:46:28.143Z</time>
      </trkpt>
      <trkpt lat="49.45817" lon="1.02597">
        <ele>147</ele>
        <time>2021-09-26T10:46:28.446Z</time>
      </trkpt>
      <trkpt lat="49.45818" lon="1.0253">
        <ele>147</ele>
        <time>2021-09-26T10:46:28.757Z</time>
      </trkpt>
      <trkpt lat="49.45816" lon="1.02506">
        <ele>147</ele>
        <time>2021-09-26T10:46:29.072Z</time>
      </trkpt>
      <trkpt lat="49.45817" lon="1.025">
        <ele>147</ele>
        <time>2021-09-26T10:46:29.387Z</time>
      </trkpt>
      <trkpt lat="49.45819" lon="1.02497">
        <ele>147</ele>
        <time>2021-09-26T10:46:29.703Z</time>
      </trkpt>
      <trkpt lat="49.45843" lon="1.0251">
        <ele>147</ele>
        <time>2021-09-26T10:46:30.024Z</time>
      </trkpt>
      <trkpt lat="49.4586" lon="1.02525">
        <ele>146</ele>
        <time>2021-09-26T10:46:30.349Z</time>
      </trkpt>
      <trkpt lat="49.45873" lon="1.02548">
        <ele>146</ele>
        <time>2021-09-26T10:46:30.678Z</time>
      </trkpt>
      <trkpt lat="49.45885" lon="1.02588">
        <ele>146</ele>
        <time>2021-09-26T10:46:31.013Z</time>
      </trkpt>
      <trkpt lat="49.45892" lon="1.02605">
        <ele>145</ele>
        <time>2021-09-26T10:46:31.350Z</time>
      </trkpt>
      <trkpt lat="49.45908" lon="1.02619">
        <ele>145</ele>
        <time>2021-09-26T10:46:31.691Z</time>
      </trkpt>
      <trkpt lat="49.45924" lon="1.02658">
        <ele>144</ele>
        <time>2021-09-26T10:46:32.038Z</time>
      </trkpt>
      <trkpt lat="49.45946" lon="1.02666">
        <ele>144</ele>
        <time>2021-09-26T10:46:32.390Z</time>
      </trkpt>
      <trkpt lat="49.45953" lon="1.02666">
        <ele>144</ele>
        <time>2021-09-26T10:46:32.743Z</time>
      </trkpt>
      <trkpt lat="49.4596" lon="1.02663">
        <ele>143</ele>
        <time>2021-09-26T10:46:33.097Z</time>
      </trkpt>
      <trkpt lat="49.45966" lon="1.02662">
        <ele>143</ele>
        <time>2021-09-26T10:46:33.453Z</time>
      </trkpt>
      <trkpt lat="49.45997" lon="1.02671">
        <ele>142</ele>
        <time>2021-09-26T10:46:33.815Z</time>
      </trkpt>
      <trkpt lat="49.46008" lon="1.02671">
        <ele>142</ele>
        <time>2021-09-26T10:46:34.179Z</time>
      </trkpt>
      <trkpt lat="49.46015" lon="1.02669">
        <ele>142</ele>
        <time>2021-09-26T10:46:34.545Z</time>
      </trkpt>
      <trkpt lat="49.46025" lon="1.02659">
        <ele>141</ele>
        <time>2021-09-26T10:46:34.913Z</time>
      </trkpt>
      <trkpt lat="49.46051" lon="1.02642">
        <ele>141</ele>
        <time>2021-09-26T10:46:35.287Z</time>
      </trkpt>
      <trkpt lat="49.46059" lon="1.02639">
        <ele>141</ele>
        <time>2021-09-26T10:46:35.662Z</time>
      </trkpt>
      <trkpt lat="49.46082" lon="1.02635">
        <ele>140</ele>
        <time>2021-09-26T10:46:36.042Z</time>
      </trkpt>
      <trkpt lat="49.46104" lon="1.02622">
        <ele>140</ele>
        <time>2021-09-26T10:46:36.427Z</time>
      </trkpt>
      <trkpt lat="49.46111" lon="1.0262">
        <ele>140</ele>
        <time>2021-09-26T10:46:36.813Z</time>
      </trkpt>
      <trkpt lat="49.46128" lon="1.02626">
        <ele>140</ele>
        <time>2021-09-26T10:46:37.203Z</time>
      </trkpt>
      <trkpt lat="49.46152" lon="1.02623">
        <ele>140</ele>
        <time>2021-09-26T10:46:37.597Z</time>
      </trkpt>
      <trkpt lat="49.46176" lon="1.02617">
        <ele>139</ele>
        <time>2021-09-26T10:46:37.996Z</time>
      </trkpt>
      <trkpt lat="49.46241" lon="1.02609">
        <ele>139</ele>
        <time>2021-09-26T10:46:38.408Z</time>
      </trkpt>
      <trkpt lat="49.46258" lon="1.02604">
        <ele>139</ele>
        <time>2021-09-26T10:46:38.824Z</time>
      </trkpt>
      <trkpt lat="49.46293" lon="1.02601">
        <ele>139</ele>
        <time>2021-09-26T10:46:39.247Z</time>
      </trkpt>
      <trkpt lat="49.46306" lon="1.02603">
        <ele>139</ele>
        <time>2021-09-26T10:46:39.672Z</time>
      </trkpt>
      <trkpt lat="49.46312" lon="1.02606">
        <ele>140</ele>
        <time>2021-09-26T10:46:40.099Z</time>
      </trkpt>
      <trkpt lat="49.46322" lon="1.02619">
        <ele>140</ele>
        <time>2021-09-26T10:46:40.528Z</time>
      </trkpt>
      <trkpt lat="49.46334" lon="1.02671">
        <ele>140</ele>
        <time>2021-09-26T10:46:40.964Z</time>
      </trkpt>
      <trkpt lat="49.46338" lon="1.02716">
        <ele>140</ele>
        <time>2021-09-26T10:46:41.406Z</time>
      </trkpt>
      <trkpt lat="49.46341" lon="1.02811">
        <ele>141</ele>
        <time>2021-09-26T10:46:41.861Z</time>
      </trkpt>
      <trkpt lat="49.46343" lon="1.02823">
        <ele>141</ele>
        <time>2021-09-26T10:46:42.317Z</time>
      </trkpt>
      <trkpt lat="49.46347" lon="1.02969">
        <ele>142</ele>
        <time>2021-09-26T10:46:42.793Z</time>
      </trkpt>
      <trkpt lat="49.46351" lon="1.03035">
        <ele>142</ele>
        <time>2021-09-26T10:46:43.277Z</time>
      </trkpt>
      <trkpt lat="49.46355" lon="1.03058">
        <ele>142</ele>
        <time>2021-09-26T10:46:43.764Z</time>
      </trkpt>
      <trkpt lat="49.46352" lon="1.03075">
        <ele>142</ele>
        <time>2021-09-26T10:46:44.253Z</time>
      </trkpt>
      <trkpt lat="49.46353" lon="1.03082">
        <ele>143</ele>
        <time>2021-09-26T10:46:44.743Z</time>
      </trkpt>
      <trkpt lat="49.46357" lon="1.03093">
        <ele>143</ele>
        <time>2021-09-26T10:46:45.235Z</time>
      </trkpt>
      <trkpt lat="49.46361" lon="1.03098">
        <ele>143</ele>
        <time>2021-09-26T10:46:45.728Z</time>
      </trkpt>
      <trkpt lat="49.46374" lon="1.03101">
        <ele>144</ele>
        <time>2021-09-26T10:46:46.224Z</time>
      </trkpt>
      <trkpt lat="49.46485" lon="1.03096">
        <ele>144</ele>
        <time>2021-09-26T10:46:46.742Z</time>
      </trkpt>
      <trkpt lat="49.46529" lon="1.03096">
        <ele>144</ele>
        <time>2021-09-26T10:46:47.269Z</time>
      </trkpt>
      <trkpt lat="49.4654" lon="1.03098">
        <ele>144</ele>
        <time>2021-09-26T10:46:47.798Z</time>
      </trkpt>
      <trkpt lat="49.46542" lon="1.03097">
        <ele>144</ele>
        <time>2021-09-26T10:46:48.328Z</time>
      </trkpt>
      <trkpt lat="49.46545" lon="1.0309">
        <ele>144</ele>
        <time>2021-09-26T10:46:48.859Z</time>
      </trkpt>
      <trkpt lat="49.46544" lon="1.03067">
        <ele>144</ele>
        <time>2021-09-26T10:46:49.393Z</time>
      </trkpt>
      <trkpt lat="49.46546" lon="1.03009">
        <ele>145</ele>
        <time>2021-09-26T10:46:49.934Z</time>
      </trkpt>
      <trkpt lat="49.46544" lon="1.02942">
        <ele>145</ele>
        <time>2021-09-26T10:46:50.484Z</time>
      </trkpt>
      <trkpt lat="49.46547" lon="1.02856">
        <ele>145</ele>
        <time>2021-09-26T10:46:51.045Z</time>
      </trkpt>
      <trkpt lat="49.46541" lon="1.02644">
        <ele>144</ele>
        <time>2021-09-26T10:46:51.634Z</time>
      </trkpt>
      <trkpt lat="49.46542" lon="1.026">
        <ele>144</ele>
        <time>2021-09-26T10:46:52.229Z</time>
      </trkpt>
      <trkpt lat="49.46545" lon="1.02592">
        <ele>144</ele>
        <time>2021-09-26T10:46:52.825Z</time>
      </trkpt>
      <trkpt lat="49.46574" lon="1.02646">
        <ele>144</ele>
        <time>2021-09-26T10:46:53.430Z</time>
      </trkpt>
      <trkpt lat="49.46589" lon="1.02668">
        <ele>144</ele>
        <time>2021-09-26T10:46:54.039Z</time>
      </trkpt>
      <trkpt lat="49.46601" lon="1.02683">
        <ele>144</ele>
        <time>2021-09-26T10:46:54.651Z</time>
      </trkpt>
      <trkpt lat="49.46614" lon="1.02688">
        <ele>143</ele>
        <time>2021-09-26T10:46:55.266Z</time>
      </trkpt>
      <trkpt lat="49.46619" lon="1.02686">
        <ele>143</ele>
        <time>2021-09-26T10:46:55.882Z</time>
      </trkpt>
      <trkpt lat="49.46623" lon="1.0268">
        <ele>143</ele>
        <time>2021-09-26T10:46:56.499Z</time>
      </trkpt>
      <trkpt lat="49.46625" lon="1.02673">
        <ele>143</ele>
        <time>2021-09-26T10:46:57.117Z</time>
      </trkpt>
      <trkpt lat="49.46625" lon="1.02666">
        <ele>142</ele>
        <time>2021-09-26T10:46:57.736Z</time>
      </trkpt>
      <trkpt lat="49.46618" lon="1.02638">
        <ele>142</ele>
        <time>2021-09-26T10:46:58.359Z</time>
      </trkpt>
      <trkpt lat="49.46596" lon="1.02589">
        <ele>142</ele>
        <time>2021-09-26T10:46:58.990Z</time>
      </trkpt>
      <trkpt lat="49.46582" lon="1.02565">
        <ele>142</ele>
        <time>2021-09-26T10:46:59.625Z</time>
      </trkpt>
      <trkpt lat="49.4657" lon="1.02511">
        <ele>142</ele>
        <time>2021-09-26T10:47:00.267Z</time>
      </trkpt>
      <trkpt lat="49.46567" lon="1.025">
        <ele>141</ele>
        <time>2021-09-26T10:47:00.911Z</time>
      </trkpt>
      <trkpt lat="49.4656" lon="1.02488">
        <ele>141</ele>
        <time>2021-09-26T10:47:01.557Z</time>
      </trkpt>
      <trkpt lat="49.46557" lon="1.02475">
        <ele>141</ele>
        <time>2021-09-26T10:47:02.205Z</time>
      </trkpt>
      <trkpt lat="49.46547" lon="1.02347">
        <ele>141</ele>
        <time>2021-09-26T10:47:02.870Z</time>
      </trkpt>
      <trkpt lat="49.46539" lon="1.02282">
        <ele>141</ele>
        <time>2021-09-26T10:47:03.543Z</time>
      </trkpt>
      <trkpt lat="49.46535" lon="1.02126">
        <ele>141</ele>
        <time>2021-09-26T10:47:04.237Z</time>
      </trkpt>
      <trkpt lat="49.46526" lon="1.02036">
        <ele>141</ele>
        <time>2021-09-26T10:47:04.942Z</time>
      </trkpt>
      <trkpt lat="49.46523" lon="1.01953">
        <ele>141</ele>
        <time>2021-09-26T10:47:05.658Z</time>
      </trkpt>
      <trkpt lat="49.4652" lon="1.01913">
        <ele>141</ele>
        <time>2021-09-26T10:47:06.379Z</time>
      </trkpt>
      <trkpt lat="49.46521" lon="1.01862">
        <ele>140</ele>
        <time>2021-09-26T10:47:07.107Z</time>
      </trkpt>
      <trkpt lat="49.46514" lon="1.01716">
        <ele>140</ele>
        <time>2021-09-26T10:47:07.854Z</time>
      </trkpt>
      <trkpt lat="49.46515" lon="1.01586">
        <ele>141</ele>
        <time>2021-09-26T10:47:08.618Z</time>
      </trkpt>
      <trkpt lat="49.46514" lon="1.01535">
        <ele>141</ele>
        <time>2021-09-26T10:47:09.389Z</time>
      </trkpt>
      <trkpt lat="49.46514" lon="1.01521">
        <ele>141</ele>
        <time>2021-09-26T10:47:10.162Z</time>
      </trkpt>
      <trkpt lat="49.46522" lon="1.01487">
        <ele>141</ele>
        <time>2021-09-26T10:47:10.939Z</time>
      </trkpt>
      <trkpt lat="49.46544" lon="1.01427">
        <ele>141</ele>
        <time>2021-09-26T10:47:11.725Z</time>
      </trkpt>
      <trkpt lat="49.46557" lon="1.01399">
        <ele>141</ele>
        <time>2021-09-26T10:47:12.516Z</time>
      </trkpt>
      <trkpt lat="49.46591" lon="1.01346">
        <ele>141</ele>
        <time>2021-09-26T10:47:13.317Z</time>
      </trkpt>
      <trkpt lat="49.46608" lon="1.01318">
        <ele>141</ele>
        <time>2021-09-26T10:47:14.122Z</time>
      </trkpt>
      <trkpt lat="49.46616" lon="1.01307">
        <ele>141</ele>
        <time>2021-09-26T10:47:14.930Z</time>
      </trkpt>
      <trkpt lat="49.46627" lon="1.01299">
        <ele>141</ele>
        <time>2021-09-26T10:47:15.740Z</time>
      </trkpt>
      <trkpt lat="49.46637" lon="1.01299">
        <ele>142</ele>
        <time>2021-09-26T10:47:16.552Z</time>
      </trkpt>
      <trkpt lat="49.46646" lon="1.01304">
        <ele>142</ele>
        <time>2021-09-26T10:47:17.366Z</time>
      </trkpt>
      <trkpt lat="49.46675" lon="1.01312">
        <ele>142</ele>
        <time>2021-09-26T10:47:18.186Z</time>
      </trkpt>
      <trkpt lat="49.46685" lon="1.01317">
        <ele>142</ele>
        <time>2021-09-26T10:47:19.008Z</time>
      </trkpt>
      <trkpt lat="49.46714" lon="1.01337">
        <ele>142</ele>
        <time>2021-09-26T10:47:19.836Z</time>
      </trkpt>
      <trkpt lat="49.46737" lon="1.01351">
        <ele>142</ele>
        <time>2021-09-26T10:47:20.669Z</time>
      </trkpt>
      <trkpt lat="49.46744" lon="1.01347">
        <ele>142</ele>
        <time>2021-09-26T10:47:21.504Z</time>
      </trkpt>
      <trkpt lat="49.46775" lon="1.01317">
        <ele>142</ele>
        <time>2021-09-26T10:47:22.346Z</time>
      </trkpt>
      <trkpt lat="49.4679" lon="1.01296">
        <ele>142</ele>
        <time>2021-09-26T10:47:23.192Z</time>
      </trkpt>
      <trkpt lat="49.46806" lon="1.01279">
        <ele>142</ele>
        <time>2021-09-26T10:47:24.042Z</time>
      </trkpt>
      <trkpt lat="49.46807" lon="1.0127">
        <ele>143</ele>
        <time>2021-09-26T10:47:24.893Z</time>
      </trkpt>
      <trkpt lat="49.46805" lon="1.01261">
        <ele>143</ele>
        <time>2021-09-26T10:47:25.745Z</time>
      </trkpt>
      <trkpt lat="49.46797" lon="1.01246">
        <ele>143</ele>
        <time>2021-09-26T10:47:26.600Z</time>
      </trkpt>
      <trkpt lat="49.46789" lon="1.0122">
        <ele>143</ele>
        <time>2021-09-26T10:47:27.459Z</time>
      </trkpt>
      <trkpt lat="49.4679" lon="1.01209">
        <ele>143</ele>
        <time>2021-09-26T10:47:28.319Z</time>
      </trkpt>
      <trkpt lat="49.46785" lon="1.01186">
        <ele>143</ele>
        <time>2021-09-26T10:47:29.182Z</time>
      </trkpt>
      <trkpt lat="49.46785" lon="1.01165">
        <ele>143</ele>
        <time>2021-09-26T10:47:30.048Z</time>
      </trkpt>
      <trkpt lat="49.46808" lon="1.01124">
        <ele>144</ele>
        <time>2021-09-26T10:47:30.921Z</time>
      </trkpt>
      <trkpt lat="49.46813" lon="1.01122">
        <ele>144</ele>
        <time>2021-09-26T10:47:31.795Z</time>
      </trkpt>
      <trkpt lat="49.46826" lon="1.01122">
        <ele>144</ele>
        <time>2021-09-26T10:47:32.672Z</time>
      </trkpt>
      <trkpt lat="49.4683" lon="1.01118">
        <ele>144</ele>
        <time>2021-09-26T10:47:33.550Z</time>
      </trkpt>
      <trkpt lat="49.46844" lon="1.01093">
        <ele>144</ele>
        <time>2021-09-26T10:47:34.432Z</time>
      </trkpt>
      <trkpt lat="49.46882" lon="1.01036">
        <ele>143</ele>
        <time>2021-09-26T10:47:35.325Z</time>
      </trkpt>
      <trkpt lat="49.46891" lon="1.01018">
        <ele>143</ele>
        <time>2021-09-26T10:47:36.221Z</time>
      </trkpt>
      <trkpt lat="49.46898" lon="1.0101">
        <ele>143</ele>
        <time>2021-09-26T10:47:37.118Z</time>
      </trkpt>
      <trkpt lat="49.4692" lon="1.00966">
        <ele>143</ele>
        <time>2021-09-26T10:47:38.023Z</time>
      </trkpt>
      <trkpt lat="49.46943" lon="1.00927">
        <ele>143</ele>
        <time>2021-09-26T10:47:38.934Z</time>
      </trkpt>
      <trkpt lat="49.46959" lon="1.00889">
        <ele>142</ele>
        <time>2021-09-26T10:47:39.851Z</time>
      </trkpt>
      <trkpt lat="49.46961" lon="1.00879">
        <ele>142</ele>
        <time>2021-09-26T10:47:40.770Z</time>
      </trkpt>
      <trkpt lat="49.46968" lon="1.00816">
        <ele>142</ele>
        <time>2021-09-26T10:47:41.697Z</time>
      </trkpt>
      <trkpt lat="49.4698" lon="1.00758">
        <ele>141</ele>
        <time>2021-09-26T10:47:42.632Z</time>
      </trkpt>
      <trkpt lat="49.46992" lon="1.0073">
        <ele>141</ele>
        <time>2021-09-26T10:47:43.571Z</time>
      </trkpt>
      <trkpt lat="49.46995" lon="1.00713">
        <ele>140</ele>
        <time>2021-09-26T10:47:44.513Z</time>
      </trkpt>
      <trkpt lat="49.46998" lon="1.00708">
        <ele>140</ele>
        <time>2021-09-26T10:47:45.456Z</time>
      </trkpt>
      <trkpt lat="49.47003" lon="1.00704">
        <ele>139</ele>
        <time>2021-09-26T10:47:46.400Z</time>
      </trkpt>
      <trkpt lat="49.47016" lon="1.00704">
        <ele>139</ele>
        <time>2021-09-26T10:47:47.346Z</time>
      </trkpt>
      <trkpt lat="49.47031" lon="1.00702">
        <ele>138</ele>
        <time>2021-09-26T10:47:48.295Z</time>
      </trkpt>
      <trkpt lat="49.47129" lon="1.0073">
        <ele>137</ele>
        <time>2021-09-26T10:47:49.264Z</time>
      </trkpt>
      <trkpt lat="49.47158" lon="1.00749">
        <ele>136</ele>
        <time>2021-09-26T10:47:50.240Z</time>
      </trkpt>
      <trkpt lat="49.47235" lon="1.00776">
        <ele>136</ele>
        <time>2021-09-26T10:47:51.231Z</time>
      </trkpt>
      <trkpt lat="49.47254" lon="1.00785">
        <ele>135</ele>
        <time>2021-09-26T10:47:52.226Z</time>
      </trkpt>
      <trkpt lat="49.47292" lon="1.00794">
        <ele>134</ele>
        <time>2021-09-26T10:47:53.229Z</time>
      </trkpt>
      <trkpt lat="49.47334" lon="1.00812">
        <ele>134</ele>
        <time>2021-09-26T10:47:54.241Z</time>
      </trkpt>
      <trkpt lat="49.47354" lon="1.00822">
        <ele>133</ele>
        <time>2021-09-26T10:47:55.257Z</time>
      </trkpt>
      <trkpt lat="49.47363" lon="1.00818">
        <ele>133</ele>
        <time>2021-09-26T10:47:56.275Z</time>
      </trkpt>
      <trkpt lat="49.47369" lon="1.0081">
        <ele>132</ele>
        <time>2021-09-26T10:47:57.295Z</time>
      </trkpt>
      <trkpt lat="49.47384" lon="1.00768">
        <ele>132</ele>
        <time>2021-09-26T10:47:58.321Z</time>
      </trkpt>
      <trkpt lat="49.4739" lon="1.00761">
        <ele>131</ele>
        <time>2021-09-26T10:47:59.348Z</time>
      </trkpt>
      <trkpt lat="49.474" lon="1.00767">
        <ele>131</ele>
        <time>2021-09-26T10:48:00.377Z</time>
      </trkpt>
      <trkpt lat="49.47405" lon="1.00764">
        <ele>131</ele>
        <time>2021-09-26T10:48:01.407Z</time>
      </trkpt>
      <trkpt lat="49.47418" lon="1.00731">
        <ele>131</ele>
        <time>2021-09-26T10:48:02.443Z</time>
      </trkpt>
      <trkpt lat="49.47424" lon="1.00702">
        <ele>130</ele>
        <time>2021-09-26T10:48:03.483Z</time>
      </trkpt>
      <trkpt lat="49.47438" lon="1.00654">
        <ele>130</ele>
        <time>2021-09-26T10:48:04.529Z</time>
      </trkpt>
      <trkpt lat="49.47438" lon="1.00621">
        <ele>130</ele>
        <time>2021-09-26T10:48:05.580Z</time>
      </trkpt>
      <trkpt lat="49.47442" lon="1.00583">
        <ele>130</ele>
        <time>2021-09-26T10:48:06.636Z</time>
      </trkpt>
      <trkpt lat="49.47444" lon="1.00575">
        <ele>129</ele>
        <time>2021-09-26T10:48:07.693Z</time>
      </trkpt>
      <trkpt lat="49.4746" lon="1.00531">
        <ele>129</ele>
        <time>2021-09-26T10:48:08.756Z</time>
      </trkpt>
      <trkpt lat="49.47465" lon="1.0049">
        <ele>129</ele>
        <time>2021-09-26T10:48:09.825Z</time>
      </trkpt>
      <trkpt lat="49.47457" lon="1.00473">
        <ele>129</ele>
        <time>2021-09-26T10:48:10.897Z</time>
      </trkpt>
      <trkpt lat="49.47442" lon="1.00456">
        <ele>129</ele>
        <time>2021-09-26T10:48:11.972Z</time>
      </trkpt>
      <trkpt lat="49.4743" lon="1.00447">
        <ele>128</ele>
        <time>2021-09-26T10:48:13.050Z</time>
      </trkpt>
      <trkpt lat="49.47413" lon="1.00438">
        <ele>128</ele>
        <time>2021-09-26T10:48:14.132Z</time>
      </trkpt>
      <trkpt lat="49.47404" lon="1.00431">
        <ele>128</ele>
        <time>2021-09-26T10:48:15.216Z</time>
      </trkpt>
      <trkpt lat="49.4738" lon="1.00419">
        <ele>127</ele>
        <time>2021-09-26T10:48:16.305Z</time>
      </trkpt>
      <trkpt lat="49.47377" lon="1.00412">
        <ele>127</ele>
        <time>2021-09-26T10:48:17.395Z</time>
      </trkpt>
      <trkpt lat="49.47381" lon="1.00404">
        <ele>126</ele>
        <time>2021-09-26T10:48:18.486Z</time>
      </trkpt>
      <trkpt lat="49.47395" lon="1.0036">
        <ele>126</ele>
        <time>2021-09-26T10:48:19.583Z</time>
      </trkpt>
      <trkpt lat="49.47404" lon="1.00342">
        <ele>125</ele>
        <time>2021-09-26T10:48:20.683Z</time>
      </trkpt>
      <trkpt lat="49.47439" lon="1.00299">
        <ele>124</ele>
        <time>2021-09-26T10:48:21.792Z</time>
      </trkpt>
      <trkpt lat="49.47451" lon="1.00276">
        <ele>123</ele>
        <time>2021-09-26T10:48:22.905Z</time>
      </trkpt>
      <trkpt lat="49.47453" lon="1.00275">
        <ele>122</ele>
        <time>2021-09-26T10:48:24.019Z</time>
      </trkpt>
      <trkpt lat="49.47457" lon="1.00276">
        <ele>121</ele>
        <time>2021-09-26T10:48:25.133Z</time>
      </trkpt>
      <trkpt lat="49.47462" lon="1.0028">
        <ele>120</ele>
        <time>2021-09-26T10:48:26.249Z</time>
      </trkpt>
      <trkpt lat="49.47466" lon="1.00281">
        <ele>119</ele>
        <time>2021-09-26T10:48:27.365Z</time>
      </trkpt>
      <trkpt lat="49.47477" lon="1.00281">
        <ele>118</ele>
        <time>2021-09-26T10:48:28.484Z</time>
      </trkpt>
      <trkpt lat="49.475" lon="1.0029">
        <ele>117</ele>
        <time>2021-09-26T10:48:29.607Z</time>
      </trkpt>
      <trkpt lat="49.47506" lon="1.00286">
        <ele>116</ele>
        <time>2021-09-26T10:48:30.732Z</time>
      </trkpt>
      <trkpt lat="49.47528" lon="1.00261">
        <ele>115</ele>
        <time>2021-09-26T10:48:31.862Z</time>
      </trkpt>
      <trkpt lat="49.47538" lon="1.00243">
        <ele>113</ele>
        <time>2021-09-26T10:48:32.995Z</time>
      </trkpt>
      <trkpt lat="49.47552" lon="1.00186">
        <ele>112</ele>
        <time>2021-09-26T10:48:34.136Z</time>
      </trkpt>
      <trkpt lat="49.47549" lon="1.00143">
        <ele>111</ele>
        <time>2021-09-26T10:48:35.283Z</time>
      </trkpt>
      <trkpt lat="49.47551" lon="1.00125">
        <ele>110</ele>
        <time>2021-09-26T10:48:36.432Z</time>
      </trkpt>
      <trkpt lat="49.4755" lon="1.00118">
        <ele>109</ele>
        <time>2021-09-26T10:48:37.582Z</time>
      </trkpt>
      <trkpt lat="49.47543" lon="1.00108">
        <ele>107</ele>
        <time>2021-09-26T10:48:38.734Z</time>
      </trkpt>
      <trkpt lat="49.47539" lon="1.00106">
        <ele>106</ele>
        <time>2021-09-26T10:48:39.887Z</time>
      </trkpt>
      <trkpt lat="49.47535" lon="1.00106">
        <ele>105</ele>
        <time>2021-09-26T10:48:41.041Z</time>
      </trkpt>
      <trkpt lat="49.47555" lon="1.00047">
        <ele>104</ele>
        <time>2021-09-26T10:48:42.203Z</time>
      </trkpt>
      <trkpt lat="49.4757" lon="1.00015">
        <ele>102</ele>
        <time>2021-09-26T10:48:43.370Z</time>
      </trkpt>
      <trkpt lat="49.47575" lon="1.00008">
        <ele>101</ele>
        <time>2021-09-26T10:48:44.539Z</time>
      </trkpt>
      <trkpt lat="49.47584" lon="1.00003">
        <ele>100</ele>
        <time>2021-09-26T10:48:45.710Z</time>
      </trkpt>
      <trkpt lat="49.47608" lon="1.00005">
        <ele>99</ele>
        <time>2021-09-26T10:48:46.885Z</time>
      </trkpt>
      <trkpt lat="49.4763" lon="0.99996">
        <ele>97</ele>
        <time>2021-09-26T10:48:48.065Z</time>
      </trkpt>
      <trkpt lat="49.47656" lon="0.99973">
        <ele>96</ele>
        <time>2021-09-26T10:48:49.251Z</time>
      </trkpt>
      <trkpt lat="49.47687" lon="0.99937">
        <ele>94</ele>
        <time>2021-09-26T10:48:50.445Z</time>
      </trkpt>
      <trkpt lat="49.47702" lon="0.9991">
        <ele>93</ele>
        <time>2021-09-26T10:48:51.643Z</time>
      </trkpt>
      <trkpt lat="49.47707" lon="0.999">
        <ele>92</ele>
        <time>2021-09-26T10:48:52.843Z</time>
      </trkpt>
      <trkpt lat="49.47711" lon="0.99887">
        <ele>91</ele>
        <time>2021-09-26T10:48:54.045Z</time>
      </trkpt>
      <trkpt lat="49.47716" lon="0.99863">
        <ele>90</ele>
        <time>2021-09-26T10:48:55.250Z</time>
      </trkpt>
      <trkpt lat="49.47732" lon="0.99823">
        <ele>89</ele>
        <time>2021-09-26T10:48:56.461Z</time>
      </trkpt>
      <trkpt lat="49.47734" lon="0.99817">
        <ele>88</ele>
        <time>2021-09-26T10:48:57.673Z</time>
      </trkpt>
      <trkpt lat="49.47733" lon="0.99783">
        <ele>87</ele>
        <time>2021-09-26T10:48:58.890Z</time>
      </trkpt>
      <trkpt lat="49.47754" lon="0.9977">
        <ele>87</ele>
        <time>2021-09-26T10:49:00.111Z</time>
      </trkpt>
      <trkpt lat="49.47763" lon="0.9977">
        <ele>86</ele>
        <time>2021-09-26T10:49:01.334Z</time>
      </trkpt>
      <trkpt lat="49.47778" lon="0.99761">
        <ele>91</ele>
        <time>2021-09-26T10:49:15.096Z</time>
      </trkpt>
      <trkpt lat="49.47773" lon="0.99758">
        <ele>93</ele>
        <time>2021-09-26T10:49:16.369Z</time>
      </trkpt>
      <trkpt lat="49.47765" lon="0.99747">
        <ele>94</ele>
        <time>2021-09-26T10:49:17.644Z</time>
      </trkpt>
      <trkpt lat="49.47756" lon="0.99741">
        <ele>96</ele>
        <time>2021-09-26T10:49:18.921Z</time>
      </trkpt>
      <trkpt lat="49.47684" lon="0.99662">
        <ele>99</ele>
        <time>2021-09-26T10:49:20.216Z</time>
      </trkpt>
      <trkpt lat="49.47676" lon="0.99655">
        <ele>100</ele>
        <time>2021-09-26T10:49:21.513Z</time>
      </trkpt>
      <trkpt lat="49.47609" lon="0.99616">
        <ele>102</ele>
        <time>2021-09-26T10:49:22.824Z</time>
      </trkpt>
      <trkpt lat="49.47585" lon="0.99609">
        <ele>104</ele>
        <time>2021-09-26T10:49:24.140Z</time>
      </trkpt>
      <trkpt lat="49.47532" lon="0.99581">
        <ele>105</ele>
        <time>2021-09-26T10:49:25.467Z</time>
      </trkpt>
      <trkpt lat="49.47344" lon="0.99474">
        <ele>107</ele>
        <time>2021-09-26T10:49:26.834Z</time>
      </trkpt>
      <trkpt lat="49.47327" lon="0.99467">
        <ele>108</ele>
        <time>2021-09-26T10:49:28.205Z</time>
      </trkpt>
      <trkpt lat="49.47321" lon="0.99467">
        <ele>110</ele>
        <time>2021-09-26T10:49:29.577Z</time>
      </trkpt>
      <trkpt lat="49.47311" lon="0.99472">
        <ele>111</ele>
        <time>2021-09-26T10:49:30.951Z</time>
      </trkpt>
      <trkpt lat="49.47292" lon="0.99485">
        <ele>112</ele>
        <time>2021-09-26T10:49:32.330Z</time>
      </trkpt>
      <trkpt lat="49.47255" lon="0.99531">
        <ele>113</ele>
        <time>2021-09-26T10:49:33.718Z</time>
      </trkpt>
      <trkpt lat="49.4724" lon="0.99545">
        <ele>114</ele>
        <time>2021-09-26T10:49:35.110Z</time>
      </trkpt>
      <trkpt lat="49.47225" lon="0.99556">
        <ele>116</ele>
        <time>2021-09-26T10:49:36.505Z</time>
      </trkpt>
      <trkpt lat="49.47208" lon="0.99562">
        <ele>117</ele>
        <time>2021-09-26T10:49:37.903Z</time>
      </trkpt>
      <trkpt lat="49.4715" lon="0.99549">
        <ele>118</ele>
        <time>2021-09-26T10:49:39.313Z</time>
      </trkpt>
      <trkpt lat="49.47144" lon="0.99544">
        <ele>119</ele>
        <time>2021-09-26T10:49:40.724Z</time>
      </trkpt>
      <trkpt lat="49.47142" lon="0.99536">
        <ele>119</ele>
        <time>2021-09-26T10:49:42.137Z</time>
      </trkpt>
      <trkpt lat="49.47143" lon="0.99515">
        <ele>120</ele>
        <time>2021-09-26T10:49:43.552Z</time>
      </trkpt>
      <trkpt lat="49.47149" lon="0.99486">
        <ele>121</ele>
        <time>2021-09-26T10:49:44.971Z</time>
      </trkpt>
      <trkpt lat="49.47149" lon="0.99482">
        <ele>122</ele>
        <time>2021-09-26T10:49:46.391Z</time>
      </trkpt>
      <trkpt lat="49.4714" lon="0.99457">
        <ele>123</ele>
        <time>2021-09-26T10:49:47.815Z</time>
      </trkpt>
      <trkpt lat="49.47121" lon="0.99438">
        <ele>123</ele>
        <time>2021-09-26T10:49:49.243Z</time>
      </trkpt>
      <trkpt lat="49.47118" lon="0.99432">
        <ele>124</ele>
        <time>2021-09-26T10:49:50.672Z</time>
      </trkpt>
      <trkpt lat="49.47109" lon="0.99386">
        <ele>124</ele>
        <time>2021-09-26T10:49:52.107Z</time>
      </trkpt>
      <trkpt lat="49.47108" lon="0.99349">
        <ele>125</ele>
        <time>2021-09-26T10:49:53.547Z</time>
      </trkpt>
      <trkpt lat="49.47104" lon="0.99341">
        <ele>125</ele>
        <time>2021-09-26T10:49:54.989Z</time>
      </trkpt>
      <trkpt lat="49.47064" lon="0.99322">
        <ele>126</ele>
        <time>2021-09-26T10:49:56.439Z</time>
      </trkpt>
      <trkpt lat="49.46991" lon="0.9928">
        <ele>126</ele>
        <time>2021-09-26T10:49:57.904Z</time>
      </trkpt>
      <trkpt lat="49.46952" lon="0.99259">
        <ele>127</ele>
        <time>2021-09-26T10:49:59.378Z</time>
      </trkpt>
      <trkpt lat="49.46911" lon="0.99235">
        <ele>127</ele>
        <time>2021-09-26T10:50:00.861Z</time>
      </trkpt>
      <trkpt lat="49.46895" lon="0.99223">
        <ele>127</ele>
        <time>2021-09-26T10:50:02.347Z</time>
      </trkpt>
      <trkpt lat="49.46855" lon="0.992">
        <ele>127</ele>
        <time>2021-09-26T10:50:03.842Z</time>
      </trkpt>
      <trkpt lat="49.46853" lon="0.99197">
        <ele>127</ele>
        <time>2021-09-26T10:50:05.337Z</time>
      </trkpt>
      <trkpt lat="49.46852" lon="0.99193">
        <ele>127</ele>
        <time>2021-09-26T10:50:06.833Z</time>
      </trkpt>
      <trkpt lat="49.46863" lon="0.9916">
        <ele>127</ele>
        <time>2021-09-26T10:50:08.334Z</time>
      </trkpt>
      <trkpt lat="49.46889" lon="0.99102">
        <ele>128</ele>
        <time>2021-09-26T10:50:09.844Z</time>
      </trkpt>
      <trkpt lat="49.46889" lon="0.99091">
        <ele>128</ele>
        <time>2021-09-26T10:50:11.355Z</time>
      </trkpt>
      <trkpt lat="49.4688" lon="0.99076">
        <ele>127</ele>
        <time>2021-09-26T10:50:12.869Z</time>
      </trkpt>
      <trkpt lat="49.46878" lon="0.99066">
        <ele>127</ele>
        <time>2021-09-26T10:50:14.384Z</time>
      </trkpt>
      <trkpt lat="49.46878" lon="0.99045">
        <ele>127</ele>
        <time>2021-09-26T10:50:15.902Z</time>
      </trkpt>
      <trkpt lat="49.46885" lon="0.99029">
        <ele>126</ele>
        <time>2021-09-26T10:50:17.422Z</time>
      </trkpt>
      <trkpt lat="49.46889" lon="0.99023">
        <ele>126</ele>
        <time>2021-09-26T10:50:18.944Z</time>
      </trkpt>
      <trkpt lat="49.46895" lon="0.99018">
        <ele>125</ele>
        <time>2021-09-26T10:50:20.467Z</time>
      </trkpt>
      <trkpt lat="49.46905" lon="0.99014">
        <ele>124</ele>
        <time>2021-09-26T10:50:21.992Z</time>
      </trkpt>
      <trkpt lat="49.46911" lon="0.99007">
        <ele>123</ele>
        <time>2021-09-26T10:50:23.518Z</time>
      </trkpt>
      <trkpt lat="49.46913" lon="0.99002">
        <ele>122</ele>
        <time>2021-09-26T10:50:25.045Z</time>
      </trkpt>
      <trkpt lat="49.4691" lon="0.98982">
        <ele>121</ele>
        <time>2021-09-26T10:50:26.575Z</time>
      </trkpt>
      <trkpt lat="49.46912" lon="0.98965">
        <ele>120</ele>
        <time>2021-09-26T10:50:28.107Z</time>
      </trkpt>
      <trkpt lat="49.46908" lon="0.98957">
        <ele>118</ele>
        <time>2021-09-26T10:50:29.640Z</time>
      </trkpt>
      <trkpt lat="49.46905" lon="0.98942">
        <ele>117</ele>
        <time>2021-09-26T10:50:31.176Z</time>
      </trkpt>
      <trkpt lat="49.46909" lon="0.98919">
        <ele>115</ele>
        <time>2021-09-26T10:50:32.715Z</time>
      </trkpt>
      <trkpt lat="49.4691" lon="0.98899">
        <ele>113</ele>
        <time>2021-09-26T10:50:34.256Z</time>
      </trkpt>
      <trkpt lat="49.46914" lon="0.98885">
        <ele>112</ele>
        <time>2021-09-26T10:50:35.799Z</time>
      </trkpt>
      <trkpt lat="49.46955" lon="0.9881">
        <ele>109</ele>
        <time>2021-09-26T10:50:37.355Z</time>
      </trkpt>
      <trkpt lat="49.47019" lon="0.98727">
        <ele>107</ele>
        <time>2021-09-26T10:50:38.928Z</time>
      </trkpt>
      <trkpt lat="49.47043" lon="0.9869">
        <ele>105</ele>
        <time>2021-09-26T10:50:40.508Z</time>
      </trkpt>
      <trkpt lat="49.47064" lon="0.9865">
        <ele>103</ele>
        <time>2021-09-26T10:50:42.094Z</time>
      </trkpt>
      <trkpt lat="49.47074" lon="0.9864">
        <ele>102</ele>
        <time>2021-09-26T10:50:43.683Z</time>
      </trkpt>
      <trkpt lat="49.47085" lon="0.98632">
        <ele>100</ele>
        <time>2021-09-26T10:50:45.274Z</time>
      </trkpt>
      <trkpt lat="49.47104" lon="0.98615">
        <ele>98</ele>
        <time>2021-09-26T10:50:46.869Z</time>
      </trkpt>
      <trkpt lat="49.47119" lon="0.98596">
        <ele>96</ele>
        <time>2021-09-26T10:50:48.468Z</time>
      </trkpt>
      <trkpt lat="49.47132" lon="0.98575">
        <ele>95</ele>
        <time>2021-09-26T10:50:50.071Z</time>
      </trkpt>
      <trkpt lat="49.47142" lon="0.98567">
        <ele>93</ele>
        <time>2021-09-26T10:50:51.676Z</time>
      </trkpt>
      <trkpt lat="49.47158" lon="0.98564">
        <ele>91</ele>
        <time>2021-09-26T10:50:53.285Z</time>
      </trkpt>
      <trkpt lat="49.4717" lon="0.98565">
        <ele>90</ele>
        <time>2021-09-26T10:50:54.896Z</time>
      </trkpt>
      <trkpt lat="49.47206" lon="0.98565">
        <ele>89</ele>
        <time>2021-09-26T10:50:56.514Z</time>
      </trkpt>
      <trkpt lat="49.47217" lon="0.98566">
        <ele>87</ele>
        <time>2021-09-26T10:50:58.134Z</time>
      </trkpt>
      <trkpt lat="49.47229" lon="0.98563">
        <ele>86</ele>
        <time>2021-09-26T10:50:59.757Z</time>
      </trkpt>
      <trkpt lat="49.47237" lon="0.98558">
        <ele>84</ele>
        <time>2021-09-26T10:51:01.382Z</time>
      </trkpt>
      <trkpt lat="49.47251" lon="0.98556">
        <ele>83</ele>
        <time>2021-09-26T10:51:03.009Z</time>
      </trkpt>
      <trkpt lat="49.47257" lon="0.98549">
        <ele>82</ele>
        <time>2021-09-26T10:51:04.638Z</time>
      </trkpt>
      <trkpt lat="49.47263" lon="0.98546">
        <ele>81</ele>
        <time>2021-09-26T10:51:06.268Z</time>
      </trkpt>
      <trkpt lat="49.4729" lon="0.98549">
        <ele>80</ele>
        <time>2021-09-26T10:51:07.904Z</time>
      </trkpt>
      <trkpt lat="49.47301" lon="0.98557">
        <ele>79</ele>
        <time>2021-09-26T10:51:09.542Z</time>
      </trkpt>
      <trkpt lat="49.47306" lon="0.98564">
        <ele>78</ele>
        <time>2021-09-26T10:51:11.181Z</time>
      </trkpt>
      <trkpt lat="49.47321" lon="0.98593">
        <ele>77</ele>
        <time>2021-09-26T10:51:12.825Z</time>
      </trkpt>
      <trkpt lat="49.47328" lon="0.98614">
        <ele>76</ele>
        <time>2021-09-26T10:51:14.472Z</time>
      </trkpt>
      <trkpt lat="49.47332" lon="0.98647">
        <ele>76</ele>
        <time>2021-09-26T10:51:16.124Z</time>
      </trkpt>
      <trkpt lat="49.47337" lon="0.98665">
        <ele>75</ele>
        <time>2021-09-26T10:51:17.778Z</time>
      </trkpt>
      <trkpt lat="49.47355" lon="0.98702">
        <ele>74</ele>
        <time>2021-09-26T10:51:19.438Z</time>
      </trkpt>
      <trkpt lat="49.47364" lon="0.98713">
        <ele>74</ele>
        <time>2021-09-26T10:51:21.101Z</time>
      </trkpt>
      <trkpt lat="49.47378" lon="0.98738">
        <ele>73</ele>
        <time>2021-09-26T10:51:22.768Z</time>
      </trkpt>
      <trkpt lat="49.47383" lon="0.98745">
        <ele>73</ele>
        <time>2021-09-26T10:51:24.436Z</time>
      </trkpt>
      <trkpt lat="49.474" lon="0.98757">
        <ele>73</ele>
        <time>2021-09-26T10:51:26.108Z</time>
      </trkpt>
      <trkpt lat="49.47418" lon="0.98772">
        <ele>72</ele>
        <time>2021-09-26T10:51:27.784Z</time>
      </trkpt>
      <trkpt lat="49.47438" lon="0.98796">
        <ele>72</ele>
        <time>2021-09-26T10:51:29.465Z</time>
      </trkpt>
      <trkpt lat="49.47458" lon="0.98815">
        <ele>72</ele>
        <time>2021-09-26T10:51:31.151Z</time>
      </trkpt>
      <trkpt lat="49.4747" lon="0.98824">
        <ele>72</ele>
        <time>2021-09-26T10:51:32.839Z</time>
      </trkpt>
      <trkpt lat="49.47476" lon="0.98825">
        <ele>72</ele>
        <time>2021-09-26T10:51:34.529Z</time>
      </trkpt>
      <trkpt lat="49.47479" lon="0.98824">
        <ele>73</ele>
        <time>2021-09-26T10:51:36.219Z</time>
      </trkpt>
      <trkpt lat="49.47488" lon="0.98814">
        <ele>73</ele>
        <time>2021-09-26T10:51:37.912Z</time>
      </trkpt>
      <trkpt lat="49.47513" lon="0.98783">
        <ele>74</ele>
        <time>2021-09-26T10:51:39.611Z</time>
      </trkpt>
      <trkpt lat="49.47519" lon="0.9878">
        <ele>75</ele>
        <time>2021-09-26T10:51:41.311Z</time>
      </trkpt>
      <trkpt lat="49.47525" lon="0.9878">
        <ele>76</ele>
        <time>2021-09-26T10:51:43.012Z</time>
      </trkpt>
      <trkpt lat="49.47531" lon="0.98783">
        <ele>77</ele>
        <time>2021-09-26T10:51:44.715Z</time>
      </trkpt>
      <trkpt lat="49.4755" lon="0.98802">
        <ele>78</ele>
        <time>2021-09-26T10:51:46.422Z</time>
      </trkpt>
      <trkpt lat="49.47558" lon="0.98818">
        <ele>79</ele>
        <time>2021-09-26T10:51:48.132Z</time>
      </trkpt>
      <trkpt lat="49.47577" lon="0.9884">
        <ele>81</ele>
        <time>2021-09-26T10:51:49.847Z</time>
      </trkpt>
      <trkpt lat="49.47589" lon="0.9886">
        <ele>82</ele>
        <time>2021-09-26T10:51:51.565Z</time>
      </trkpt>
      <trkpt lat="49.47626" lon="0.98903">
        <ele>84</ele>
        <time>2021-09-26T10:51:53.292Z</time>
      </trkpt>
      <trkpt lat="49.47644" lon="0.98929">
        <ele>87</ele>
        <time>2021-09-26T10:51:55.024Z</time>
      </trkpt>
      <trkpt lat="49.47652" lon="0.98936">
        <ele>89</ele>
        <time>2021-09-26T10:51:56.758Z</time>
      </trkpt>
      <trkpt lat="49.47662" lon="0.9894">
        <ele>91</ele>
        <time>2021-09-26T10:51:58.494Z</time>
      </trkpt>
      <trkpt lat="49.47675" lon="0.9894">
        <ele>93</ele>
        <time>2021-09-26T10:52:00.233Z</time>
      </trkpt>
      <trkpt lat="49.47683" lon="0.9893">
        <ele>95</ele>
        <time>2021-09-26T10:52:01.974Z</time>
      </trkpt>
      <trkpt lat="49.47689" lon="0.98897">
        <ele>98</ele>
        <time>2021-09-26T10:52:03.720Z</time>
      </trkpt>
      <trkpt lat="49.4769" lon="0.98873">
        <ele>100</ele>
        <time>2021-09-26T10:52:05.469Z</time>
      </trkpt>
      <trkpt lat="49.47684" lon="0.98833">
        <ele>102</ele>
        <time>2021-09-26T10:52:07.223Z</time>
      </trkpt>
      <trkpt lat="49.4768" lon="0.98774">
        <ele>105</ele>
        <time>2021-09-26T10:52:08.985Z</time>
      </trkpt>
      <trkpt lat="49.47671" lon="0.98723">
        <ele>107</ele>
        <time>2021-09-26T10:52:10.754Z</time>
      </trkpt>
      <trkpt lat="49.47667" lon="0.98676">
        <ele>110</ele>
        <time>2021-09-26T10:52:12.529Z</time>
      </trkpt>
      <trkpt lat="49.47663" lon="0.9865">
        <ele>112</ele>
        <time>2021-09-26T10:52:14.307Z</time>
      </trkpt>
      <trkpt lat="49.4766" lon="0.98609">
        <ele>114</ele>
        <time>2021-09-26T10:52:16.091Z</time>
      </trkpt>
      <trkpt lat="49.47653" lon="0.98566">
        <ele>116</ele>
        <time>2021-09-26T10:52:17.880Z</time>
      </trkpt>
      <trkpt lat="49.47637" lon="0.98539">
        <ele>117</ele>
        <time>2021-09-26T10:52:19.674Z</time>
      </trkpt>
      <trkpt lat="49.47625" lon="0.98524">
        <ele>118</ele>
        <time>2021-09-26T10:52:21.471Z</time>
      </trkpt>
      <trkpt lat="49.4762" lon="0.98515">
        <ele>120</ele>
        <time>2021-09-26T10:52:23.270Z</time>
      </trkpt>
      <trkpt lat="49.47615" lon="0.98497">
        <ele>120</ele>
        <time>2021-09-26T10:52:25.071Z</time>
      </trkpt>
      <trkpt lat="49.47607" lon="0.98479">
        <ele>121</ele>
        <time>2021-09-26T10:52:26.875Z</time>
      </trkpt>
      <trkpt lat="49.47602" lon="0.98459">
        <ele>122</ele>
        <time>2021-09-26T10:52:28.682Z</time>
      </trkpt>
      <trkpt lat="49.476" lon="0.9844">
        <ele>122</ele>
        <time>2021-09-26T10:52:30.492Z</time>
      </trkpt>
      <trkpt lat="49.47595" lon="0.98421">
        <ele>123</ele>
        <time>2021-09-26T10:52:32.304Z</time>
      </trkpt>
      <trkpt lat="49.47575" lon="0.98356">
        <ele>122</ele>
        <time>2021-09-26T10:52:34.126Z</time>
      </trkpt>
      <trkpt lat="49.47565" lon="0.98337">
        <ele>123</ele>
        <time>2021-09-26T10:52:35.951Z</time>
      </trkpt>
      <trkpt lat="49.47509" lon="0.98197">
        <ele>122</ele>
        <time>2021-09-26T10:52:37.797Z</time>
      </trkpt>
      <trkpt lat="49.4747" lon="0.98124">
        <ele>122</ele>
        <time>2021-09-26T10:52:39.656Z</time>
      </trkpt>
      <trkpt lat="49.47462" lon="0.98112">
        <ele>122</ele>
        <time>2021-09-26T10:52:41.517Z</time>
      </trkpt>
      <trkpt lat="49.47442" lon="0.98093">
        <ele>122</ele>
        <time>2021-09-26T10:52:43.382Z</time>
      </trkpt>
      <trkpt lat="49.47435" lon="0.98082">
        <ele>122</ele>
        <time>2021-09-26T10:52:45.249Z</time>
      </trkpt>
      <trkpt lat="49.47432" lon="0.9806">
        <ele>121</ele>
        <time>2021-09-26T10:52:47.119Z</time>
      </trkpt>
      <trkpt lat="49.47426" lon="0.98046">
        <ele>121</ele>
        <time>2021-09-26T10:52:48.991Z</time>
      </trkpt>
      <trkpt lat="49.4738" lon="0.97963">
        <ele>120</ele>
        <time>2021-09-26T10:52:50.878Z</time>
      </trkpt>
      <trkpt lat="49.47372" lon="0.97947">
        <ele>120</ele>
        <time>2021-09-26T10:52:52.767Z</time>
      </trkpt>
      <trkpt lat="49.47356" lon="0.97921">
        <ele>120</ele>
        <time>2021-09-26T10:52:54.661Z</time>
      </trkpt>
      <trkpt lat="49.47337" lon="0.97878">
        <ele>119</ele>
        <time>2021-09-26T10:52:56.562Z</time>
      </trkpt>
      <trkpt lat="49.47311" lon="0.97798">
        <ele>119</ele>
        <time>2021-09-26T10:52:58.474Z</time>
      </trkpt>
      <trkpt lat="49.47298" lon="0.97765">
        <ele>119</ele>
        <time>2021-09-26T10:53:00.392Z</time>
      </trkpt>
      <trkpt lat="49.47279" lon="0.97727">
        <ele>119</ele>
        <time>2021-09-26T10:53:02.316Z</time>
      </trkpt>
      <trkpt lat="49.47239" lon="0.97657">
        <ele>118</ele>
        <time>2021-09-26T10:53:04.252Z</time>
      </trkpt>
      <trkpt lat="49.47204" lon="0.97564">
        <ele>118</ele>
        <time>2021-09-26T10:53:06.202Z</time>
      </trkpt>
      <trkpt lat="49.47192" lon="0.97541">
        <ele>118</ele>
        <time>2021-09-26T10:53:08.156Z</time>
      </trkpt>
      <trkpt lat="49.47185" lon="0.97534">
        <ele>118</ele>
        <time>2021-09-26T10:53:10.111Z</time>
      </trkpt>
      <trkpt lat="49.47181" lon="0.97533">
        <ele>118</ele>
        <time>2021-09-26T10:53:12.067Z</time>
      </trkpt>
      <trkpt lat="49.47177" lon="0.97535">
        <ele>118</ele>
        <time>2021-09-26T10:53:14.024Z</time>
      </trkpt>
      <trkpt lat="49.47168" lon="0.97543">
        <ele>119</ele>
        <time>2021-09-26T10:53:15.983Z</time>
      </trkpt>
      <trkpt lat="49.47141" lon="0.97573">
        <ele>119</ele>
        <time>2021-09-26T10:53:17.949Z</time>
      </trkpt>
      <trkpt lat="49.47123" lon="0.97589">
        <ele>119</ele>
        <time>2021-09-26T10:53:19.919Z</time>
      </trkpt>
      <trkpt lat="49.47098" lon="0.9762">
        <ele>120</ele>
        <time>2021-09-26T10:53:21.895Z</time>
      </trkpt>
      <trkpt lat="49.47022" lon="0.97709">
        <ele>120</ele>
        <time>2021-09-26T10:53:23.891Z</time>
      </trkpt>
      <trkpt lat="49.47017" lon="0.9771">
        <ele>120</ele>
        <time>2021-09-26T10:53:25.888Z</time>
      </trkpt>
      <trkpt lat="49.47001" lon="0.97676">
        <ele>120</ele>
        <time>2021-09-26T10:53:27.890Z</time>
      </trkpt>
      <trkpt lat="49.46968" lon="0.97614">
        <ele>120</ele>
        <time>2021-09-26T10:53:29.903Z</time>
      </trkpt>
      <trkpt lat="49.46922" lon="0.97534">
        <ele>120</ele>
        <time>2021-09-26T10:53:31.930Z</time>
      </trkpt>
      <trkpt lat="49.46894" lon="0.97488">
        <ele>121</ele>
        <time>2021-09-26T10:53:33.965Z</time>
      </trkpt>
      <trkpt lat="49.46875" lon="0.97451">
        <ele>121</ele>
        <time>2021-09-26T10:53:36.006Z</time>
      </trkpt>
      <trkpt lat="49.46815" lon="0.97345">
        <ele>121</ele>
        <time>2021-09-26T10:53:38.065Z</time>
      </trkpt>
      <trkpt lat="49.46773" lon="0.97263">
        <ele>120</ele>
        <time>2021-09-26T10:53:40.138Z</time>
      </trkpt>
      <trkpt lat="49.46766" lon="0.97243">
        <ele>120</ele>
        <time>2021-09-26T10:53:42.214Z</time>
      </trkpt>
      <trkpt lat="49.46765" lon="0.97235">
        <ele>120</ele>
        <time>2021-09-26T10:53:44.291Z</time>
      </trkpt>
      <trkpt lat="49.46762" lon="0.97227">
        <ele>120</ele>
        <time>2021-09-26T10:53:46.369Z</time>
      </trkpt>
      <trkpt lat="49.4675" lon="0.97218">
        <ele>119</ele>
        <time>2021-09-26T10:53:48.450Z</time>
      </trkpt>
      <trkpt lat="49.46747" lon="0.9721">
        <ele>119</ele>
        <time>2021-09-26T10:53:50.532Z</time>
      </trkpt>
      <trkpt lat="49.4674" lon="0.97189">
        <ele>118</ele>
        <time>2021-09-26T10:53:52.617Z</time>
      </trkpt>
      <trkpt lat="49.4673" lon="0.97149">
        <ele>117</ele>
        <time>2021-09-26T10:53:54.708Z</time>
      </trkpt>
      <trkpt lat="49.46723" lon="0.97138">
        <ele>117</ele>
        <time>2021-09-26T10:53:56.801Z</time>
      </trkpt>
      <trkpt lat="49.4672" lon="0.97129">
        <ele>116</ele>
        <time>2021-09-26T10:53:58.895Z</time>
      </trkpt>
      <trkpt lat="49.46718" lon="0.97087">
        <ele>115</ele>
        <time>2021-09-26T10:54:00.994Z</time>
      </trkpt>
      <trkpt lat="49.46713" lon="0.97062">
        <ele>114</ele>
        <time>2021-09-26T10:54:03.097Z</time>
      </trkpt>
      <trkpt lat="49.46717" lon="0.97026">
        <ele>113</ele>
        <time>2021-09-26T10:54:05.205Z</time>
      </trkpt>
      <trkpt lat="49.46723" lon="0.96999">
        <ele>112</ele>
        <time>2021-09-26T10:54:07.316Z</time>
      </trkpt>
      <trkpt lat="49.46713" lon="0.96979">
        <ele>110</ele>
        <time>2021-09-26T10:54:09.430Z</time>
      </trkpt>
      <trkpt lat="49.46711" lon="0.96943">
        <ele>109</ele>
        <time>2021-09-26T10:54:11.549Z</time>
      </trkpt>
      <trkpt lat="49.46709" lon="0.96935">
        <ele>107</ele>
        <time>2021-09-26T10:54:13.669Z</time>
      </trkpt>
      <trkpt lat="49.46705" lon="0.9693">
        <ele>106</ele>
        <time>2021-09-26T10:54:15.790Z</time>
      </trkpt>
      <trkpt lat="49.46701" lon="0.96931">
        <ele>104</ele>
        <time>2021-09-26T10:54:17.912Z</time>
      </trkpt>
      <trkpt lat="49.46698" lon="0.96929">
        <ele>103</ele>
        <time>2021-09-26T10:54:20.035Z</time>
      </trkpt>
      <trkpt lat="49.46696" lon="0.96902">
        <ele>101</ele>
        <time>2021-09-26T10:54:22.161Z</time>
      </trkpt>
      <trkpt lat="49.46691" lon="0.96878">
        <ele>99</ele>
        <time>2021-09-26T10:54:24.291Z</time>
      </trkpt>
      <trkpt lat="49.46684" lon="0.96874">
        <ele>97</ele>
        <time>2021-09-26T10:54:26.422Z</time>
      </trkpt>
      <trkpt lat="49.46681" lon="0.96875">
        <ele>96</ele>
        <time>2021-09-26T10:54:28.554Z</time>
      </trkpt>
      <trkpt lat="49.46677" lon="0.96881">
        <ele>94</ele>
        <time>2021-09-26T10:54:30.687Z</time>
      </trkpt>
      <trkpt lat="49.46674" lon="0.96882">
        <ele>92</ele>
        <time>2021-09-26T10:54:32.821Z</time>
      </trkpt>
      <trkpt lat="49.46668" lon="0.9688">
        <ele>91</ele>
        <time>2021-09-26T10:54:34.956Z</time>
      </trkpt>
      <trkpt lat="49.4666" lon="0.96881">
        <ele>89</ele>
        <time>2021-09-26T10:54:37.092Z</time>
      </trkpt>
      <trkpt lat="49.46652" lon="0.96885">
        <ele>88</ele>
        <time>2021-09-26T10:54:39.230Z</time>
      </trkpt>
      <trkpt lat="49.46644" lon="0.96892">
        <ele>86</ele>
        <time>2021-09-26T10:54:41.370Z</time>
      </trkpt>
      <trkpt lat="49.46627" lon="0.96919">
        <ele>85</ele>
        <time>2021-09-26T10:54:43.515Z</time>
      </trkpt>
      <trkpt lat="49.46609" lon="0.96941">
        <ele>83</ele>
        <time>2021-09-26T10:54:45.664Z</time>
      </trkpt>
      <trkpt lat="49.46591" lon="0.96958">
        <ele>82</ele>
        <time>2021-09-26T10:54:47.818Z</time>
      </trkpt>
      <trkpt lat="49.46588" lon="0.9696">
        <ele>82</ele>
        <time>2021-09-26T10:54:49.972Z</time>
      </trkpt>
      <trkpt lat="49.46585" lon="0.96956">
        <ele>81</ele>
        <time>2021-09-26T10:54:52.127Z</time>
      </trkpt>
      <trkpt lat="49.46588" lon="0.96932">
        <ele>81</ele>
        <time>2021-09-26T10:54:54.285Z</time>
      </trkpt>
      <trkpt lat="49.4658" lon="0.9692">
        <ele>82</ele>
        <time>2021-09-26T10:54:56.445Z</time>
      </trkpt>
      <trkpt lat="49.46582" lon="0.96901">
        <ele>82</ele>
        <time>2021-09-26T10:54:58.608Z</time>
      </trkpt>
      <trkpt lat="49.4659" lon="0.96887">
        <ele>83</ele>
        <time>2021-09-26T10:55:00.773Z</time>
      </trkpt>
      <trkpt lat="49.46605" lon="0.96843">
        <ele>84</ele>
        <time>2021-09-26T10:55:02.945Z</time>
      </trkpt>
      <trkpt lat="49.46625" lon="0.96814">
        <ele>85</ele>
        <time>2021-09-26T10:55:05.122Z</time>
      </trkpt>
      <trkpt lat="49.46627" lon="0.96808">
        <ele>86</ele>
        <time>2021-09-26T10:55:07.300Z</time>
      </trkpt>
      <trkpt lat="49.46627" lon="0.96768">
        <ele>88</ele>
        <time>2021-09-26T10:55:09.483Z</time>
      </trkpt>
      <trkpt lat="49.46645" lon="0.96755">
        <ele>89</ele>
        <time>2021-09-26T10:55:11.670Z</time>
      </trkpt>
      <trkpt lat="49.4665" lon="0.96745">
        <ele>91</ele>
        <time>2021-09-26T10:55:13.859Z</time>
      </trkpt>
      <trkpt lat="49.46661" lon="0.96734">
        <ele>92</ele>
        <time>2021-09-26T10:55:16.051Z</time>
      </trkpt>
      <trkpt lat="49.46665" lon="0.96733">
        <ele>94</ele>
        <time>2021-09-26T10:55:18.244Z</time>
      </trkpt>
      <trkpt lat="49.46676" lon="0.96737">
        <ele>96</ele>
        <time>2021-09-26T10:55:20.439Z</time>
      </trkpt>
      <trkpt lat="49.46686" lon="0.96735">
        <ele>98</ele>
        <time>2021-09-26T10:55:22.636Z</time>
      </trkpt>
      <trkpt lat="49.46693" lon="0.96731">
        <ele>100</ele>
        <time>2021-09-26T10:55:24.834Z</time>
      </trkpt>
      <trkpt lat="49.46699" lon="0.96719">
        <ele>102</ele>
        <time>2021-09-26T10:55:27.034Z</time>
      </trkpt>
      <trkpt lat="49.4672" lon="0.96652">
        <ele>104</ele>
        <time>2021-09-26T10:55:29.244Z</time>
      </trkpt>
      <trkpt lat="49.46726" lon="0.96625">
        <ele>106</ele>
        <time>2021-09-26T10:55:31.458Z</time>
      </trkpt>
      <trkpt lat="49.46729" lon="0.96605">
        <ele>108</ele>
        <time>2021-09-26T10:55:33.674Z</time>
      </trkpt>
      <trkpt lat="49.46728" lon="0.9657">
        <ele>110</ele>
        <time>2021-09-26T10:55:35.895Z</time>
      </trkpt>
      <trkpt lat="49.46731" lon="0.96547">
        <ele>112</ele>
        <time>2021-09-26T10:55:38.119Z</time>
      </trkpt>
      <trkpt lat="49.46729" lon="0.96544">
        <ele>114</ele>
        <time>2021-09-26T10:55:40.344Z</time>
      </trkpt>
      <trkpt lat="49.46724" lon="0.96545">
        <ele>116</ele>
        <time>2021-09-26T10:55:42.570Z</time>
      </trkpt>
      <trkpt lat="49.46709" lon="0.96558">
        <ele>117</ele>
        <time>2021-09-26T10:55:44.799Z</time>
      </trkpt>
      <trkpt lat="49.46617" lon="0.96667">
        <ele>119</ele>
        <time>2021-09-26T10:55:47.051Z</time>
      </trkpt>
      <trkpt lat="49.46614" lon="0.96666">
        <ele>120</ele>
        <time>2021-09-26T10:55:49.304Z</time>
      </trkpt>
      <trkpt lat="49.46593" lon="0.96616">
        <ele>121</ele>
        <time>2021-09-26T10:55:51.565Z</time>
      </trkpt>
      <trkpt lat="49.46581" lon="0.96595">
        <ele>123</ele>
        <time>2021-09-26T10:55:53.829Z</time>
      </trkpt>
      <trkpt lat="49.46547" lon="0.96539">
        <ele>124</ele>
        <time>2021-09-26T10:55:56.103Z</time>
      </trkpt>
      <trkpt lat="49.46536" lon="0.96527">
        <ele>124</ele>
        <time>2021-09-26T10:55:58.380Z</time>
      </trkpt>
      <trkpt lat="49.46488" lon="0.9647">
        <ele>129</ele>
        <time>2021-09-26T10:58:34.393Z</time>
      </trkpt>
      <trkpt lat="49.46487" lon="0.96447">
        <ele>131</ele>
        <time>2021-09-26T10:58:36.872Z</time>
      </trkpt>
      <trkpt lat="49.46482" lon="0.96429">
        <ele>133</ele>
        <time>2021-09-26T10:58:39.354Z</time>
      </trkpt>
      <trkpt lat="49.46437" lon="0.96341">
        <ele>134</ele>
        <time>2021-09-26T10:58:41.850Z</time>
      </trkpt>
      <trkpt lat="49.46419" lon="0.96309">
        <ele>136</ele>
        <time>2021-09-26T10:58:44.352Z</time>
      </trkpt>
      <trkpt lat="49.46409" lon="0.96284">
        <ele>136</ele>
        <time>2021-09-26T10:58:46.857Z</time>
      </trkpt>
      <trkpt lat="49.46404" lon="0.96279">
        <ele>137</ele>
        <time>2021-09-26T10:58:49.364Z</time>
      </trkpt>
      <trkpt lat="49.46399" lon="0.96279">
        <ele>137</ele>
        <time>2021-09-26T10:58:51.872Z</time>
      </trkpt>
      <trkpt lat="49.46393" lon="0.96281">
        <ele>137</ele>
        <time>2021-09-26T10:58:54.381Z</time>
      </trkpt>
      <trkpt lat="49.46387" lon="0.96292">
        <ele>137</ele>
        <time>2021-09-26T10:58:56.892Z</time>
      </trkpt>
      <trkpt lat="49.46369" lon="0.96314">
        <ele>137</ele>
        <time>2021-09-26T10:58:59.407Z</time>
      </trkpt>
      <trkpt lat="49.46366" lon="0.96321">
        <ele>137</ele>
        <time>2021-09-26T10:59:01.924Z</time>
      </trkpt>
      <trkpt lat="49.46364" lon="0.9633">
        <ele>136</ele>
        <time>2021-09-26T10:59:04.442Z</time>
      </trkpt>
      <trkpt lat="49.46366" lon="0.96352">
        <ele>135</ele>
        <time>2021-09-26T10:59:06.963Z</time>
      </trkpt>
      <trkpt lat="49.46363" lon="0.96362">
        <ele>134</ele>
        <time>2021-09-26T10:59:09.485Z</time>
      </trkpt>
      <trkpt lat="49.46358" lon="0.96368">
        <ele>133</ele>
        <time>2021-09-26T10:59:12.008Z</time>
      </trkpt>
      <trkpt lat="49.46349" lon="0.96371">
        <ele>131</ele>
        <time>2021-09-26T10:59:14.533Z</time>
      </trkpt>
      <trkpt lat="49.46347" lon="0.96373">
        <ele>130</ele>
        <time>2021-09-26T10:59:17.059Z</time>
      </trkpt>
      <trkpt lat="49.46346" lon="0.96379">
        <ele>128</ele>
        <time>2021-09-26T10:59:19.585Z</time>
      </trkpt>
      <trkpt lat="49.46348" lon="0.96393">
        <ele>127</ele>
        <time>2021-09-26T10:59:22.113Z</time>
      </trkpt>
      <trkpt lat="49.46344" lon="0.96407">
        <ele>125</ele>
        <time>2021-09-26T10:59:24.643Z</time>
      </trkpt>
      <trkpt lat="49.46347" lon="0.96428">
        <ele>123</ele>
        <time>2021-09-26T10:59:27.176Z</time>
      </trkpt>
      <trkpt lat="49.46354" lon="0.96437">
        <ele>121</ele>
        <time>2021-09-26T10:59:29.711Z</time>
      </trkpt>
      <trkpt lat="49.46354" lon="0.96458">
        <ele>119</ele>
        <time>2021-09-26T10:59:32.249Z</time>
      </trkpt>
      <trkpt lat="49.46354" lon="0.96463">
        <ele>116</ele>
        <time>2021-09-26T10:59:34.787Z</time>
      </trkpt>
      <trkpt lat="49.46343" lon="0.96471">
        <ele>114</ele>
        <time>2021-09-26T10:59:37.328Z</time>
      </trkpt>
      <trkpt lat="49.46341" lon="0.9648">
        <ele>112</ele>
        <time>2021-09-26T10:59:39.870Z</time>
      </trkpt>
      <trkpt lat="49.4634" lon="0.96493">
        <ele>109</ele>
        <time>2021-09-26T10:59:42.414Z</time>
      </trkpt>
      <trkpt lat="49.46325" lon="0.96531">
        <ele>107</ele>
        <time>2021-09-26T10:59:44.963Z</time>
      </trkpt>
      <trkpt lat="49.46316" lon="0.96534">
        <ele>104</ele>
        <time>2021-09-26T10:59:47.514Z</time>
      </trkpt>
      <trkpt lat="49.46296" lon="0.96538">
        <ele>102</ele>
        <time>2021-09-26T10:59:50.069Z</time>
      </trkpt>
      <trkpt lat="49.46287" lon="0.96542">
        <ele>99</ele>
        <time>2021-09-26T10:59:52.626Z</time>
      </trkpt>
      <trkpt lat="49.46272" lon="0.96545">
        <ele>97</ele>
        <time>2021-09-26T10:59:55.186Z</time>
      </trkpt>
      <trkpt lat="49.46269" lon="0.96546">
        <ele>95</ele>
        <time>2021-09-26T10:59:57.747Z</time>
      </trkpt>
      <trkpt lat="49.46266" lon="0.96552">
        <ele>92</ele>
        <time>2021-09-26T11:00:00.309Z</time>
      </trkpt>
      <trkpt lat="49.46264" lon="0.96562">
        <ele>90</ele>
        <time>2021-09-26T11:00:02.872Z</time>
      </trkpt>
      <trkpt lat="49.46275" lon="0.9659">
        <ele>88</ele>
        <time>2021-09-26T11:00:05.439Z</time>
      </trkpt>
      <trkpt lat="49.46274" lon="0.96598">
        <ele>86</ele>
        <time>2021-09-26T11:00:08.008Z</time>
      </trkpt>
      <trkpt lat="49.46272" lon="0.96599">
        <ele>84</ele>
        <time>2021-09-26T11:00:10.577Z</time>
      </trkpt>
      <trkpt lat="49.46267" lon="0.96596">
        <ele>82</ele>
        <time>2021-09-26T11:00:13.147Z</time>
      </trkpt>
      <trkpt lat="49.46262" lon="0.9659">
        <ele>81</ele>
        <time>2021-09-26T11:00:15.718Z</time>
      </trkpt>
      <trkpt lat="49.46256" lon="0.96588">
        <ele>79</ele>
        <time>2021-09-26T11:00:18.291Z</time>
      </trkpt>
      <trkpt lat="49.46243" lon="0.96598">
        <ele>77</ele>
        <time>2021-09-26T11:00:20.866Z</time>
      </trkpt>
      <trkpt lat="49.46237" lon="0.966">
        <ele>75</ele>
        <time>2021-09-26T11:00:23.443Z</time>
      </trkpt>
      <trkpt lat="49.46214" lon="0.96584">
        <ele>74</ele>
        <time>2021-09-26T11:00:26.025Z</time>
      </trkpt>
      <trkpt lat="49.46197" lon="0.96565">
        <ele>72</ele>
        <time>2021-09-26T11:00:28.611Z</time>
      </trkpt>
      <trkpt lat="49.46189" lon="0.96555">
        <ele>70</ele>
        <time>2021-09-26T11:00:31.199Z</time>
      </trkpt>
      <trkpt lat="49.46185" lon="0.96557">
        <ele>69</ele>
        <time>2021-09-26T11:00:33.788Z</time>
      </trkpt>
      <trkpt lat="49.46181" lon="0.96562">
        <ele>67</ele>
        <time>2021-09-26T11:00:36.378Z</time>
      </trkpt>
      <trkpt lat="49.46172" lon="0.96559">
        <ele>66</ele>
        <time>2021-09-26T11:00:38.970Z</time>
      </trkpt>
      <trkpt lat="49.46166" lon="0.9656">
        <ele>64</ele>
        <time>2021-09-26T11:00:41.563Z</time>
      </trkpt>
      <trkpt lat="49.46161" lon="0.96571">
        <ele>62</ele>
        <time>2021-09-26T11:00:44.158Z</time>
      </trkpt>
      <trkpt lat="49.46149" lon="0.96584">
        <ele>60</ele>
        <time>2021-09-26T11:00:46.756Z</time>
      </trkpt>
      <trkpt lat="49.46138" lon="0.9659">
        <ele>59</ele>
        <time>2021-09-26T11:00:49.356Z</time>
      </trkpt>
      <trkpt lat="49.46132" lon="0.96601">
        <ele>57</ele>
        <time>2021-09-26T11:00:51.958Z</time>
      </trkpt>
      <trkpt lat="49.46125" lon="0.96606">
        <ele>55</ele>
        <time>2021-09-26T11:00:54.561Z</time>
      </trkpt>
      <trkpt lat="49.46116" lon="0.96609">
        <ele>54</ele>
        <time>2021-09-26T11:00:57.166Z</time>
      </trkpt>
      <trkpt lat="49.46106" lon="0.96617">
        <ele>52</ele>
        <time>2021-09-26T11:00:59.773Z</time>
      </trkpt>
      <trkpt lat="49.46102" lon="0.96623">
        <ele>51</ele>
        <time>2021-09-26T11:01:02.382Z</time>
      </trkpt>
      <trkpt lat="49.46099" lon="0.96634">
        <ele>49</ele>
        <time>2021-09-26T11:01:04.992Z</time>
      </trkpt>
      <trkpt lat="49.46085" lon="0.96653">
        <ele>47</ele>
        <time>2021-09-26T11:01:07.606Z</time>
      </trkpt>
      <trkpt lat="49.46075" lon="0.96659">
        <ele>46</ele>
        <time>2021-09-26T11:01:10.222Z</time>
      </trkpt>
      <trkpt lat="49.46068" lon="0.96666">
        <ele>44</ele>
        <time>2021-09-26T11:01:12.840Z</time>
      </trkpt>
      <trkpt lat="49.46059" lon="0.9667">
        <ele>43</ele>
        <time>2021-09-26T11:01:15.460Z</time>
      </trkpt>
      <trkpt lat="49.46048" lon="0.9668">
        <ele>41</ele>
        <time>2021-09-26T11:01:18.082Z</time>
      </trkpt>
      <trkpt lat="49.46036" lon="0.96689">
        <ele>40</ele>
        <time>2021-09-26T11:01:20.707Z</time>
      </trkpt>
      <trkpt lat="49.46026" lon="0.96693">
        <ele>39</ele>
        <time>2021-09-26T11:01:23.334Z</time>
      </trkpt>
      <trkpt lat="49.46016" lon="0.96694">
        <ele>37</ele>
        <time>2021-09-26T11:01:25.963Z</time>
      </trkpt>
      <trkpt lat="49.46001" lon="0.96704">
        <ele>36</ele>
        <time>2021-09-26T11:01:28.595Z</time>
      </trkpt>
      <trkpt lat="49.45998" lon="0.96709">
        <ele>35</ele>
        <time>2021-09-26T11:01:31.228Z</time>
      </trkpt>
      <trkpt lat="49.4599" lon="0.96751">
        <ele>34</ele>
        <time>2021-09-26T11:01:33.867Z</time>
      </trkpt>
      <trkpt lat="49.45991" lon="0.96763">
        <ele>33</ele>
        <time>2021-09-26T11:01:36.507Z</time>
      </trkpt>
      <trkpt lat="49.45718" lon="0.96939">
        <ele>27.1</ele>
        <time>2021-09-26T11:01:39.153Z</time>
      </trkpt>
      <trkpt lat="49.45511" lon="0.97135">
        <ele>24.3</ele>
      </trkpt>
      <trkpt lat="49.45475" lon="0.97171">
        <ele>20.1</ele>
      </trkpt>
      <trkpt lat="49.45465" lon="0.97186">
        <ele>20.4</ele>
        <time>2021-09-26T11:01:41.803Z</time>
      </trkpt>
      <trkpt lat="49.45472" lon="0.97191">
        <ele>32</ele>
        <time>2021-09-26T11:06:59.551Z</time>
      </trkpt>
      <trkpt lat="49.45468" lon="0.97186">
        <ele>31</ele>
        <time>2021-09-26T11:07:02.750Z</time>
      </trkpt>
      <trkpt lat="49.45461" lon="0.97188">
        <ele>30</ele>
        <time>2021-09-26T11:07:05.951Z</time>
      </trkpt>
      <trkpt lat="49.45417" lon="0.97224">
        <ele>30</ele>
        <time>2021-09-26T11:07:09.162Z</time>
      </trkpt>
      <trkpt lat="49.45384" lon="0.9724">
        <ele>30</ele>
        <time>2021-09-26T11:07:12.380Z</time>
      </trkpt>
      <trkpt lat="49.45189" lon="0.97249">
        <ele>31.2</ele>
        <time>2021-09-26T11:07:15.599Z</time>
      </trkpt>
      <trkpt lat="49.45189" lon="0.97249">
        <ele>31.1</ele>
        <time>2021-09-26T11:14:21.932Z</time>
      </trkpt>
      <trkpt lat="49.45167" lon="0.97241">
        <ele>44</ele>
        <time>2021-09-26T11:14:25.719Z</time>
      </trkpt>
      <trkpt lat="49.45141" lon="0.97221">
        <ele>42</ele>
        <time>2021-09-26T11:14:29.512Z</time>
      </trkpt>
      <trkpt lat="49.4509" lon="0.97193">
        <ele>40</ele>
        <time>2021-09-26T11:14:33.315Z</time>
      </trkpt>
      <trkpt lat="49.45074" lon="0.97181">
        <ele>39</ele>
        <time>2021-09-26T11:14:37.122Z</time>
      </trkpt>
      <trkpt lat="49.45065" lon="0.97177">
        <ele>38</ele>
        <time>2021-09-26T11:14:40.931Z</time>
      </trkpt>
      <trkpt lat="49.45057" lon="0.97175">
        <ele>37</ele>
        <time>2021-09-26T11:14:44.742Z</time>
      </trkpt>
      <trkpt lat="49.45038" lon="0.9718">
        <ele>37</ele>
        <time>2021-09-26T11:14:48.556Z</time>
      </trkpt>
      <trkpt lat="49.45022" lon="0.97179">
        <ele>37</ele>
        <time>2021-09-26T11:14:52.374Z</time>
      </trkpt>
      <trkpt lat="49.45017" lon="0.97182">
        <ele>37</ele>
        <time>2021-09-26T11:14:56.193Z</time>
      </trkpt>
      <trkpt lat="49.45001" lon="0.97196">
        <ele>38</ele>
        <time>2021-09-26T11:15:00.015Z</time>
      </trkpt>
      <trkpt lat="49.44981" lon="0.97219">
        <ele>39</ele>
        <time>2021-09-26T11:15:03.842Z</time>
      </trkpt>
      <trkpt lat="49.44972" lon="0.97237">
        <ele>40</ele>
        <time>2021-09-26T11:15:07.672Z</time>
      </trkpt>
      <trkpt lat="49.44961" lon="0.97252">
        <ele>41</ele>
        <time>2021-09-26T11:15:11.505Z</time>
      </trkpt>
      <trkpt lat="49.44951" lon="0.97255">
        <ele>43</ele>
        <time>2021-09-26T11:15:15.340Z</time>
      </trkpt>
      <trkpt lat="49.44931" lon="0.97244">
        <ele>45</ele>
        <time>2021-09-26T11:15:19.180Z</time>
      </trkpt>
      <trkpt lat="49.44923" lon="0.97243">
        <ele>47</ele>
        <time>2021-09-26T11:15:23.021Z</time>
      </trkpt>
      <trkpt lat="49.44916" lon="0.97246">
        <ele>49</ele>
        <time>2021-09-26T11:15:26.864Z</time>
      </trkpt>
      <trkpt lat="49.44912" lon="0.97252">
        <ele>51</ele>
        <time>2021-09-26T11:15:30.708Z</time>
      </trkpt>
      <trkpt lat="49.44913" lon="0.97276">
        <ele>54</ele>
        <time>2021-09-26T11:15:34.555Z</time>
      </trkpt>
      <trkpt lat="49.44896" lon="0.97334">
        <ele>57</ele>
        <time>2021-09-26T11:15:38.410Z</time>
      </trkpt>
      <trkpt lat="49.44886" lon="0.97411">
        <ele>60</ele>
        <time>2021-09-26T11:15:42.275Z</time>
      </trkpt>
      <trkpt lat="49.4488" lon="0.97439">
        <ele>63</ele>
        <time>2021-09-26T11:15:46.144Z</time>
      </trkpt>
      <trkpt lat="49.44866" lon="0.9747">
        <ele>65</ele>
        <time>2021-09-26T11:15:50.018Z</time>
      </trkpt>
      <trkpt lat="49.44851" lon="0.97495">
        <ele>68</ele>
        <time>2021-09-26T11:15:53.897Z</time>
      </trkpt>
      <trkpt lat="49.44833" lon="0.97534">
        <ele>70</ele>
        <time>2021-09-26T11:15:57.782Z</time>
      </trkpt>
      <trkpt lat="49.44821" lon="0.97581">
        <ele>72</ele>
        <time>2021-09-26T11:16:01.673Z</time>
      </trkpt>
      <trkpt lat="49.44814" lon="0.97645">
        <ele>75</ele>
        <time>2021-09-26T11:16:05.573Z</time>
      </trkpt>
      <trkpt lat="49.44804" lon="0.97694">
        <ele>77</ele>
        <time>2021-09-26T11:16:09.480Z</time>
      </trkpt>
      <trkpt lat="49.44796" lon="0.97725">
        <ele>79</ele>
        <time>2021-09-26T11:16:13.391Z</time>
      </trkpt>
      <trkpt lat="49.4478" lon="0.97771">
        <ele>81</ele>
        <time>2021-09-26T11:16:17.309Z</time>
      </trkpt>
      <trkpt lat="49.44765" lon="0.97797">
        <ele>83</ele>
        <time>2021-09-26T11:16:21.231Z</time>
      </trkpt>
      <trkpt lat="49.44751" lon="0.97818">
        <ele>84</ele>
        <time>2021-09-26T11:16:25.157Z</time>
      </trkpt>
      <trkpt lat="49.44741" lon="0.97846">
        <ele>86</ele>
        <time>2021-09-26T11:16:29.087Z</time>
      </trkpt>
      <trkpt lat="49.44736" lon="0.97878">
        <ele>87</ele>
        <time>2021-09-26T11:16:33.022Z</time>
      </trkpt>
      <trkpt lat="49.44734" lon="0.97905">
        <ele>89</ele>
        <time>2021-09-26T11:16:36.960Z</time>
      </trkpt>
      <trkpt lat="49.4473" lon="0.97922">
        <ele>90</ele>
        <time>2021-09-26T11:16:40.901Z</time>
      </trkpt>
      <trkpt lat="49.44727" lon="0.97951">
        <ele>91</ele>
        <time>2021-09-26T11:16:44.845Z</time>
      </trkpt>
      <trkpt lat="49.4472" lon="0.9799">
        <ele>92</ele>
        <time>2021-09-26T11:16:48.795Z</time>
      </trkpt>
      <trkpt lat="49.44717" lon="0.98026">
        <ele>93</ele>
        <time>2021-09-26T11:16:52.749Z</time>
      </trkpt>
      <trkpt lat="49.44714" lon="0.98043">
        <ele>93</ele>
        <time>2021-09-26T11:16:56.706Z</time>
      </trkpt>
      <trkpt lat="49.44713" lon="0.98083">
        <ele>94</ele>
        <time>2021-09-26T11:17:00.668Z</time>
      </trkpt>
      <trkpt lat="49.44708" lon="0.98123">
        <ele>94</ele>
        <time>2021-09-26T11:17:04.635Z</time>
      </trkpt>
      <trkpt lat="49.44696" lon="0.98211">
        <ele>95</ele>
        <time>2021-09-26T11:17:08.614Z</time>
      </trkpt>
      <trkpt lat="49.44682" lon="0.98288">
        <ele>94</ele>
        <time>2021-09-26T11:17:12.603Z</time>
      </trkpt>
      <trkpt lat="49.4468" lon="0.98312">
        <ele>94</ele>
        <time>2021-09-26T11:17:16.596Z</time>
      </trkpt>
      <trkpt lat="49.44681" lon="0.98331">
        <ele>94</ele>
        <time>2021-09-26T11:17:20.591Z</time>
      </trkpt>
      <trkpt lat="49.44672" lon="0.98402">
        <ele>94</ele>
        <time>2021-09-26T11:17:24.595Z</time>
      </trkpt>
      <trkpt lat="49.44672" lon="0.98417">
        <ele>94</ele>
        <time>2021-09-26T11:17:28.602Z</time>
      </trkpt>
      <trkpt lat="49.44676" lon="0.98436">
        <ele>93</ele>
        <time>2021-09-26T11:17:32.611Z</time>
      </trkpt>
      <trkpt lat="49.44675" lon="0.98438">
        <ele>82</ele>
      </trkpt>
      <trkpt lat="49.44632" lon="0.98425">
        <ele>82.5</ele>
      </trkpt>
      <trkpt lat="49.44633" lon="0.98424">
        <ele>83</ele>
        <time>2021-09-26T11:19:45.549Z</time>
      </trkpt>
      <trkpt lat="49.44634" lon="0.98416">
        <ele>84</ele>
        <time>2021-09-26T11:19:49.835Z</time>
      </trkpt>
      <trkpt lat="49.44634" lon="0.98407">
        <ele>84</ele>
        <time>2021-09-26T11:19:54.122Z</time>
      </trkpt>
      <trkpt lat="49.44632" lon="0.984">
        <ele>85</ele>
        <time>2021-09-26T11:19:58.410Z</time>
      </trkpt>
      <trkpt lat="49.44618" lon="0.9836">
        <ele>86</ele>
        <time>2021-09-26T11:20:02.704Z</time>
      </trkpt>
      <trkpt lat="49.44613" lon="0.98327">
        <ele>86</ele>
        <time>2021-09-26T11:20:07.002Z</time>
      </trkpt>
      <trkpt lat="49.44611" lon="0.98267">
        <ele>87</ele>
        <time>2021-09-26T11:20:11.308Z</time>
      </trkpt>
      <trkpt lat="49.44608" lon="0.98209">
        <ele>87</ele>
        <time>2021-09-26T11:20:15.622Z</time>
      </trkpt>
      <trkpt lat="49.44613" lon="0.98174">
        <ele>88</ele>
        <time>2021-09-26T11:20:19.940Z</time>
      </trkpt>
      <trkpt lat="49.44612" lon="0.98146">
        <ele>88</ele>
        <time>2021-09-26T11:20:24.262Z</time>
      </trkpt>
      <trkpt lat="49.4461" lon="0.98134">
        <ele>89</ele>
        <time>2021-09-26T11:20:28.586Z</time>
      </trkpt>
      <trkpt lat="49.44606" lon="0.9812">
        <ele>89</ele>
        <time>2021-09-26T11:20:32.911Z</time>
      </trkpt>
      <trkpt lat="49.44589" lon="0.9808">
        <ele>90</ele>
        <time>2021-09-26T11:20:37.243Z</time>
      </trkpt>
      <trkpt lat="49.44567" lon="0.98041">
        <ele>90</ele>
        <time>2021-09-26T11:20:41.582Z</time>
      </trkpt>
      <trkpt lat="49.44552" lon="0.98018">
        <ele>90</ele>
        <time>2021-09-26T11:20:45.925Z</time>
      </trkpt>
      <trkpt lat="49.44514" lon="0.97966">
        <ele>91</ele>
        <time>2021-09-26T11:20:50.278Z</time>
      </trkpt>
      <trkpt lat="49.44489" lon="0.97928">
        <ele>91</ele>
        <time>2021-09-26T11:20:54.638Z</time>
      </trkpt>
      <trkpt lat="49.4447" lon="0.97903">
        <ele>92</ele>
        <time>2021-09-26T11:20:59.003Z</time>
      </trkpt>
      <trkpt lat="49.44428" lon="0.9786">
        <ele>92</ele>
        <time>2021-09-26T11:21:03.378Z</time>
      </trkpt>
      <trkpt lat="49.44406" lon="0.97835">
        <ele>92</ele>
        <time>2021-09-26T11:21:07.759Z</time>
      </trkpt>
      <trkpt lat="49.4437" lon="0.97788">
        <ele>93</ele>
        <time>2021-09-26T11:21:12.149Z</time>
      </trkpt>
      <trkpt lat="49.44324" lon="0.97733">
        <ele>93</ele>
        <time>2021-09-26T11:21:16.551Z</time>
      </trkpt>
      <trkpt lat="49.44282" lon="0.97679">
        <ele>93</ele>
        <time>2021-09-26T11:21:20.964Z</time>
      </trkpt>
      <trkpt lat="49.44222" lon="0.97611">
        <ele>93</ele>
        <time>2021-09-26T11:21:25.392Z</time>
      </trkpt>
      <trkpt lat="49.44192" lon="0.97574">
        <ele>93</ele>
        <time>2021-09-26T11:21:29.827Z</time>
      </trkpt>
      <trkpt lat="49.4417" lon="0.97558">
        <ele>93</ele>
        <time>2021-09-26T11:21:34.267Z</time>
      </trkpt>
      <trkpt lat="49.44159" lon="0.97553">
        <ele>94</ele>
        <time>2021-09-26T11:21:38.710Z</time>
      </trkpt>
      <trkpt lat="49.44138" lon="0.97547">
        <ele>94</ele>
        <time>2021-09-26T11:21:43.157Z</time>
      </trkpt>
      <trkpt lat="49.44074" lon="0.97532">
        <ele>94</ele>
        <time>2021-09-26T11:21:47.617Z</time>
      </trkpt>
      <trkpt lat="49.44031" lon="0.97535">
        <ele>94</ele>
        <time>2021-09-26T11:21:52.086Z</time>
      </trkpt>
      <trkpt lat="49.44002" lon="0.97529">
        <ele>94</ele>
        <time>2021-09-26T11:21:56.560Z</time>
      </trkpt>
      <trkpt lat="49.43983" lon="0.97533">
        <ele>95</ele>
        <time>2021-09-26T11:22:01.038Z</time>
      </trkpt>
      <trkpt lat="49.43973" lon="0.97533">
        <ele>95</ele>
        <time>2021-09-26T11:22:05.518Z</time>
      </trkpt>
      <trkpt lat="49.43954" lon="0.97529">
        <ele>95</ele>
        <time>2021-09-26T11:22:10.002Z</time>
      </trkpt>
      <trkpt lat="49.43935" lon="0.97528">
        <ele>96</ele>
        <time>2021-09-26T11:22:14.490Z</time>
      </trkpt>
      <trkpt lat="49.43925" lon="0.97525">
        <ele>96</ele>
        <time>2021-09-26T11:22:18.980Z</time>
      </trkpt>
      <trkpt lat="49.43911" lon="0.97524">
        <ele>96</ele>
        <time>2021-09-26T11:22:23.473Z</time>
      </trkpt>
      <trkpt lat="49.43878" lon="0.97511">
        <ele>96</ele>
        <time>2021-09-26T11:22:27.972Z</time>
      </trkpt>
      <trkpt lat="49.43848" lon="0.97513">
        <ele>96</ele>
        <time>2021-09-26T11:22:32.477Z</time>
      </trkpt>
      <trkpt lat="49.43819" lon="0.97505">
        <ele>96</ele>
        <time>2021-09-26T11:22:36.988Z</time>
      </trkpt>
      <trkpt lat="49.43803" lon="0.97504">
        <ele>97</ele>
        <time>2021-09-26T11:22:41.503Z</time>
      </trkpt>
      <trkpt lat="49.4378" lon="0.97498">
        <ele>97</ele>
        <time>2021-09-26T11:22:46.022Z</time>
      </trkpt>
      <trkpt lat="49.43737" lon="0.97497">
        <ele>97</ele>
        <time>2021-09-26T11:22:50.550Z</time>
      </trkpt>
      <trkpt lat="49.43727" lon="0.97501">
        <ele>97</ele>
        <time>2021-09-26T11:22:55.080Z</time>
      </trkpt>
      <trkpt lat="49.43709" lon="0.97512">
        <ele>97</ele>
        <time>2021-09-26T11:22:59.614Z</time>
      </trkpt>
      <trkpt lat="49.43689" lon="0.97513">
        <ele>97</ele>
        <time>2021-09-26T11:23:04.152Z</time>
      </trkpt>
      <trkpt lat="49.43678" lon="0.97515">
        <ele>97</ele>
        <time>2021-09-26T11:23:08.692Z</time>
      </trkpt>
      <trkpt lat="49.43659" lon="0.97526">
        <ele>97</ele>
        <time>2021-09-26T11:23:13.236Z</time>
      </trkpt>
      <trkpt lat="49.43599" lon="0.97573">
        <ele>97</ele>
        <time>2021-09-26T11:23:17.794Z</time>
      </trkpt>
      <trkpt lat="49.4355" lon="0.97617">
        <ele>96</ele>
        <time>2021-09-26T11:23:22.363Z</time>
      </trkpt>
      <trkpt lat="49.43531" lon="0.9764">
        <ele>96</ele>
        <time>2021-09-26T11:23:26.937Z</time>
      </trkpt>
      <trkpt lat="49.43528" lon="0.9764">
        <ele>96</ele>
        <time>2021-09-26T11:23:31.512Z</time>
      </trkpt>
      <trkpt lat="49.43517" lon="0.97632">
        <ele>95</ele>
        <time>2021-09-26T11:23:36.089Z</time>
      </trkpt>
      <trkpt lat="49.43494" lon="0.97606">
        <ele>95</ele>
        <time>2021-09-26T11:23:40.672Z</time>
      </trkpt>
      <trkpt lat="49.43464" lon="0.97565">
        <ele>94</ele>
        <time>2021-09-26T11:23:45.263Z</time>
      </trkpt>
      <trkpt lat="49.43415" lon="0.97486">
        <ele>94</ele>
        <time>2021-09-26T11:23:49.868Z</time>
      </trkpt>
      <trkpt lat="49.43376" lon="0.97415">
        <ele>93</ele>
        <time>2021-09-26T11:23:54.485Z</time>
      </trkpt>
      <trkpt lat="49.43367" lon="0.97394">
        <ele>93</ele>
        <time>2021-09-26T11:23:59.105Z</time>
      </trkpt>
      <trkpt lat="49.43359" lon="0.97387">
        <ele>92</ele>
        <time>2021-09-26T11:24:03.727Z</time>
      </trkpt>
      <trkpt lat="49.43329" lon="0.97384">
        <ele>92</ele>
        <time>2021-09-26T11:24:08.355Z</time>
      </trkpt>
      <trkpt lat="49.43312" lon="0.97387">
        <ele>91</ele>
        <time>2021-09-26T11:24:12.987Z</time>
      </trkpt>
      <trkpt lat="49.43286" lon="0.97395">
        <ele>90</ele>
        <time>2021-09-26T11:24:17.624Z</time>
      </trkpt>
      <trkpt lat="49.432" lon="0.97433">
        <ele>90</ele>
        <time>2021-09-26T11:24:22.279Z</time>
      </trkpt>
      <trkpt lat="49.43148" lon="0.97461">
        <ele>89</ele>
        <time>2021-09-26T11:24:26.945Z</time>
      </trkpt>
      <trkpt lat="49.43127" lon="0.97469">
        <ele>88</ele>
        <time>2021-09-26T11:24:31.615Z</time>
      </trkpt>
      <trkpt lat="49.43097" lon="0.97484">
        <ele>88</ele>
        <time>2021-09-26T11:24:36.291Z</time>
      </trkpt>
      <trkpt lat="49.43023" lon="0.97526">
        <ele>87</ele>
        <time>2021-09-26T11:24:40.983Z</time>
      </trkpt>
      <trkpt lat="49.43001" lon="0.97536">
        <ele>87</ele>
        <time>2021-09-26T11:24:45.680Z</time>
      </trkpt>
      <trkpt lat="49.42983" lon="0.97548">
        <ele>86</ele>
        <time>2021-09-26T11:24:50.381Z</time>
      </trkpt>
      <trkpt lat="49.42946" lon="0.97566">
        <ele>85</ele>
        <time>2021-09-26T11:24:55.090Z</time>
      </trkpt>
      <trkpt lat="49.42935" lon="0.9757">
        <ele>85</ele>
        <time>2021-09-26T11:24:59.801Z</time>
      </trkpt>
      <trkpt lat="49.42926" lon="0.97571">
        <ele>84</ele>
        <time>2021-09-26T11:25:04.514Z</time>
      </trkpt>
      <trkpt lat="49.42904" lon="0.97566">
        <ele>83</ele>
        <time>2021-09-26T11:25:09.231Z</time>
      </trkpt>
      <trkpt lat="49.42893" lon="0.97561">
        <ele>83</ele>
        <time>2021-09-26T11:25:13.950Z</time>
      </trkpt>
      <trkpt lat="49.42884" lon="0.97551">
        <ele>82</ele>
        <time>2021-09-26T11:25:18.672Z</time>
      </trkpt>
      <trkpt lat="49.42873" lon="0.97532">
        <ele>81</ele>
        <time>2021-09-26T11:25:23.397Z</time>
      </trkpt>
      <trkpt lat="49.42859" lon="0.9748">
        <ele>81</ele>
        <time>2021-09-26T11:25:28.129Z</time>
      </trkpt>
      <trkpt lat="49.42835" lon="0.97349">
        <ele>80</ele>
        <time>2021-09-26T11:25:32.879Z</time>
      </trkpt>
      <trkpt lat="49.42826" lon="0.97258">
        <ele>79</ele>
        <time>2021-09-26T11:25:37.641Z</time>
      </trkpt>
      <trkpt lat="49.42809" lon="0.97193">
        <ele>78</ele>
        <time>2021-09-26T11:25:42.412Z</time>
      </trkpt>
      <trkpt lat="49.42791" lon="0.97131">
        <ele>78</ele>
        <time>2021-09-26T11:25:47.192Z</time>
      </trkpt>
      <trkpt lat="49.42763" lon="0.97009">
        <ele>77</ele>
        <time>2021-09-26T11:25:51.989Z</time>
      </trkpt>
      <trkpt lat="49.42749" lon="0.96918">
        <ele>76</ele>
        <time>2021-09-26T11:25:56.798Z</time>
      </trkpt>
      <trkpt lat="49.42749" lon="0.96884">
        <ele>75</ele>
        <time>2021-09-26T11:26:01.612Z</time>
      </trkpt>
      <trkpt lat="49.42753" lon="0.96825">
        <ele>74</ele>
        <time>2021-09-26T11:26:06.433Z</time>
      </trkpt>
      <trkpt lat="49.42751" lon="0.96794">
        <ele>74</ele>
        <time>2021-09-26T11:26:11.258Z</time>
      </trkpt>
      <trkpt lat="49.42749" lon="0.96781">
        <ele>73</ele>
        <time>2021-09-26T11:26:16.085Z</time>
      </trkpt>
      <trkpt lat="49.4273" lon="0.96704">
        <ele>72</ele>
        <time>2021-09-26T11:26:20.923Z</time>
      </trkpt>
      <trkpt lat="49.42716" lon="0.96679">
        <ele>72</ele>
        <time>2021-09-26T11:26:25.765Z</time>
      </trkpt>
      <trkpt lat="49.42698" lon="0.96638">
        <ele>71</ele>
        <time>2021-09-26T11:26:30.614Z</time>
      </trkpt>
      <trkpt lat="49.42691" lon="0.9661">
        <ele>71</ele>
        <time>2021-09-26T11:26:35.467Z</time>
      </trkpt>
      <trkpt lat="49.42664" lon="0.96549">
        <ele>70</ele>
        <time>2021-09-26T11:26:40.329Z</time>
      </trkpt>
      <trkpt lat="49.42645" lon="0.96518">
        <ele>70</ele>
        <time>2021-09-26T11:26:45.197Z</time>
      </trkpt>
      <trkpt lat="49.42635" lon="0.96505">
        <ele>69</ele>
        <time>2021-09-26T11:26:50.067Z</time>
      </trkpt>
      <trkpt lat="49.42625" lon="0.96499">
        <ele>69</ele>
        <time>2021-09-26T11:26:54.939Z</time>
      </trkpt>
      <trkpt lat="49.42618" lon="0.96497">
        <ele>69</ele>
        <time>2021-09-26T11:26:59.813Z</time>
      </trkpt>
      <trkpt lat="49.42588" lon="0.96496">
        <ele>69</ele>
        <time>2021-09-26T11:27:04.693Z</time>
      </trkpt>
      <trkpt lat="49.4258" lon="0.96497">
        <ele>69</ele>
        <time>2021-09-26T11:27:09.574Z</time>
      </trkpt>
      <trkpt lat="49.42559" lon="0.96511">
        <ele>70</ele>
        <time>2021-09-26T11:27:14.460Z</time>
      </trkpt>
      <trkpt lat="49.42516" lon="0.96547">
        <ele>70</ele>
        <time>2021-09-26T11:27:19.356Z</time>
      </trkpt>
      <trkpt lat="49.42487" lon="0.96577">
        <ele>71</ele>
        <time>2021-09-26T11:27:24.259Z</time>
      </trkpt>
      <trkpt lat="49.42466" lon="0.96591">
        <ele>72</ele>
        <time>2021-09-26T11:27:29.166Z</time>
      </trkpt>
      <trkpt lat="49.42425" lon="0.96629">
        <ele>73</ele>
        <time>2021-09-26T11:27:34.083Z</time>
      </trkpt>
      <trkpt lat="49.42417" lon="0.96642">
        <ele>73</ele>
        <time>2021-09-26T11:27:39.002Z</time>
      </trkpt>
      <trkpt lat="49.42414" lon="0.96655">
        <ele>74</ele>
        <time>2021-09-26T11:27:43.923Z</time>
      </trkpt>
      <trkpt lat="49.42396" lon="0.96695">
        <ele>75</ele>
        <time>2021-09-26T11:27:48.850Z</time>
      </trkpt>
      <trkpt lat="49.42389" lon="0.96699">
        <ele>75</ele>
        <time>2021-09-26T11:27:53.779Z</time>
      </trkpt>
      <trkpt lat="49.42385" lon="0.967">
        <ele>76</ele>
        <time>2021-09-26T11:27:58.709Z</time>
      </trkpt>
      <trkpt lat="49.42382" lon="0.96697">
        <ele>77</ele>
        <time>2021-09-26T11:28:03.639Z</time>
      </trkpt>
      <trkpt lat="49.42387" lon="0.96662">
        <ele>78</ele>
        <time>2021-09-26T11:28:08.574Z</time>
      </trkpt>
      <trkpt lat="49.42392" lon="0.96637">
        <ele>78</ele>
        <time>2021-09-26T11:28:13.512Z</time>
      </trkpt>
      <trkpt lat="49.42396" lon="0.96595">
        <ele>79</ele>
        <time>2021-09-26T11:28:18.456Z</time>
      </trkpt>
      <trkpt lat="49.42404" lon="0.96556">
        <ele>80</ele>
        <time>2021-09-26T11:28:23.405Z</time>
      </trkpt>
      <trkpt lat="49.42411" lon="0.9651">
        <ele>80</ele>
        <time>2021-09-26T11:28:28.361Z</time>
      </trkpt>
      <trkpt lat="49.42415" lon="0.96465">
        <ele>81</ele>
        <time>2021-09-26T11:28:33.322Z</time>
      </trkpt>
      <trkpt lat="49.42432" lon="0.9636">
        <ele>81</ele>
        <time>2021-09-26T11:28:38.298Z</time>
      </trkpt>
      <trkpt lat="49.42429" lon="0.96346">
        <ele>82</ele>
        <time>2021-09-26T11:28:43.275Z</time>
      </trkpt>
      <trkpt lat="49.42424" lon="0.96332">
        <ele>82</ele>
        <time>2021-09-26T11:28:48.255Z</time>
      </trkpt>
      <trkpt lat="49.42418" lon="0.96319">
        <ele>83</ele>
        <time>2021-09-26T11:28:53.237Z</time>
      </trkpt>
      <trkpt lat="49.42406" lon="0.96309">
        <ele>83</ele>
        <time>2021-09-26T11:28:58.221Z</time>
      </trkpt>
      <trkpt lat="49.42397" lon="0.96298">
        <ele>83</ele>
        <time>2021-09-26T11:29:03.208Z</time>
      </trkpt>
      <trkpt lat="49.42383" lon="0.96288">
        <ele>83</ele>
        <time>2021-09-26T11:29:08.198Z</time>
      </trkpt>
      <trkpt lat="49.42375" lon="0.9628">
        <ele>83</ele>
        <time>2021-09-26T11:29:13.190Z</time>
      </trkpt>
      <trkpt lat="49.42319" lon="0.96242">
        <ele>83</ele>
        <time>2021-09-26T11:29:18.194Z</time>
      </trkpt>
      <trkpt lat="49.42218" lon="0.96196">
        <ele>83</ele>
        <time>2021-09-26T11:29:23.219Z</time>
      </trkpt>
      <trkpt lat="49.42198" lon="0.96192">
        <ele>83</ele>
        <time>2021-09-26T11:29:28.248Z</time>
      </trkpt>
      <trkpt lat="49.42158" lon="0.96178">
        <ele>82</ele>
        <time>2021-09-26T11:29:33.285Z</time>
      </trkpt>
      <trkpt lat="49.42148" lon="0.96174">
        <ele>82</ele>
        <time>2021-09-26T11:29:38.324Z</time>
      </trkpt>
      <trkpt lat="49.42126" lon="0.96159">
        <ele>81</ele>
        <time>2021-09-26T11:29:43.368Z</time>
      </trkpt>
      <trkpt lat="49.42127" lon="0.96145">
        <ele>80</ele>
        <time>2021-09-26T11:29:48.414Z</time>
      </trkpt>
      <trkpt lat="49.42144" lon="0.96099">
        <ele>79</ele>
        <time>2021-09-26T11:29:53.467Z</time>
      </trkpt>
      <trkpt lat="49.42151" lon="0.96071">
        <ele>78</ele>
        <time>2021-09-26T11:29:58.524Z</time>
      </trkpt>
      <trkpt lat="49.42173" lon="0.95962">
        <ele>77</ele>
        <time>2021-09-26T11:30:03.596Z</time>
      </trkpt>
      <trkpt lat="49.42183" lon="0.95895">
        <ele>75</ele>
        <time>2021-09-26T11:30:08.677Z</time>
      </trkpt>
      <trkpt lat="49.42188" lon="0.95874">
        <ele>74</ele>
        <time>2021-09-26T11:30:13.761Z</time>
      </trkpt>
      <trkpt lat="49.42192" lon="0.95863">
        <ele>73</ele>
        <time>2021-09-26T11:30:18.846Z</time>
      </trkpt>
      <trkpt lat="49.42193" lon="0.95849">
        <ele>71</ele>
        <time>2021-09-26T11:30:23.933Z</time>
      </trkpt>
      <trkpt lat="49.42199" lon="0.95836">
        <ele>70</ele>
        <time>2021-09-26T11:30:29.022Z</time>
      </trkpt>
      <trkpt lat="49.42199" lon="0.95831">
        <ele>68</ele>
        <time>2021-09-26T11:30:34.112Z</time>
      </trkpt>
      <trkpt lat="49.42195" lon="0.95807">
        <ele>67</ele>
        <time>2021-09-26T11:30:39.205Z</time>
      </trkpt>
      <trkpt lat="49.4219" lon="0.95795">
        <ele>65</ele>
        <time>2021-09-26T11:30:44.300Z</time>
      </trkpt>
      <trkpt lat="49.42174" lon="0.95772">
        <ele>63</ele>
        <time>2021-09-26T11:30:49.400Z</time>
      </trkpt>
      <trkpt lat="49.4216" lon="0.95756">
        <ele>62</ele>
        <time>2021-09-26T11:30:54.503Z</time>
      </trkpt>
      <trkpt lat="49.42146" lon="0.95747">
        <ele>61</ele>
        <time>2021-09-26T11:30:59.609Z</time>
      </trkpt>
      <trkpt lat="49.42139" lon="0.95746">
        <ele>59</ele>
        <time>2021-09-26T11:31:04.716Z</time>
      </trkpt>
      <trkpt lat="49.42119" lon="0.9576">
        <ele>58</ele>
        <time>2021-09-26T11:31:09.828Z</time>
      </trkpt>
      <trkpt lat="49.42114" lon="0.95755">
        <ele>57</ele>
        <time>2021-09-26T11:31:14.941Z</time>
      </trkpt>
      <trkpt lat="49.42108" lon="0.95758">
        <ele>55</ele>
        <time>2021-09-26T11:31:20.055Z</time>
      </trkpt>
      <trkpt lat="49.42099" lon="0.95767">
        <ele>54</ele>
        <time>2021-09-26T11:31:25.171Z</time>
      </trkpt>
      <trkpt lat="49.42076" lon="0.95784">
        <ele>53</ele>
        <time>2021-09-26T11:31:30.292Z</time>
      </trkpt>
      <trkpt lat="49.4205" lon="0.95821">
        <ele>52</ele>
        <time>2021-09-26T11:31:35.421Z</time>
      </trkpt>
      <trkpt lat="49.42038" lon="0.95833">
        <ele>51</ele>
        <time>2021-09-26T11:31:40.552Z</time>
      </trkpt>
      <trkpt lat="49.42027" lon="0.95841">
        <ele>50</ele>
        <time>2021-09-26T11:31:45.686Z</time>
      </trkpt>
      <trkpt lat="49.42011" lon="0.95859">
        <ele>49</ele>
        <time>2021-09-26T11:31:50.824Z</time>
      </trkpt>
      <trkpt lat="49.41985" lon="0.95879">
        <ele>49</ele>
        <time>2021-09-26T11:31:55.968Z</time>
      </trkpt>
      <trkpt lat="49.41947" lon="0.95918">
        <ele>48</ele>
        <time>2021-09-26T11:32:01.121Z</time>
      </trkpt>
      <trkpt lat="49.41936" lon="0.95939">
        <ele>48</ele>
        <time>2021-09-26T11:32:06.277Z</time>
      </trkpt>
      <trkpt lat="49.41923" lon="0.95975">
        <ele>48</ele>
        <time>2021-09-26T11:32:11.439Z</time>
      </trkpt>
      <trkpt lat="49.41916" lon="0.96017">
        <ele>48</ele>
        <time>2021-09-26T11:32:16.606Z</time>
      </trkpt>
      <trkpt lat="49.41914" lon="0.96054">
        <ele>48</ele>
        <time>2021-09-26T11:32:21.778Z</time>
      </trkpt>
      <trkpt lat="49.41917" lon="0.96073">
        <ele>48</ele>
        <time>2021-09-26T11:32:26.953Z</time>
      </trkpt>
      <trkpt lat="49.41923" lon="0.96088">
        <ele>48</ele>
        <time>2021-09-26T11:32:32.130Z</time>
      </trkpt>
      <trkpt lat="49.41926" lon="0.96116">
        <ele>49</ele>
        <time>2021-09-26T11:32:37.311Z</time>
      </trkpt>
      <trkpt lat="49.41932" lon="0.96145">
        <ele>49</ele>
        <time>2021-09-26T11:32:42.496Z</time>
      </trkpt>
      <trkpt lat="49.4194" lon="0.96206">
        <ele>50</ele>
        <time>2021-09-26T11:32:47.689Z</time>
      </trkpt>
      <trkpt lat="49.41939" lon="0.96229">
        <ele>50</ele>
        <time>2021-09-26T11:32:52.885Z</time>
      </trkpt>
      <trkpt lat="49.41942" lon="0.96345">
        <ele>51</ele>
        <time>2021-09-26T11:32:58.096Z</time>
      </trkpt>
      <trkpt lat="49.41942" lon="0.96404">
        <ele>51</ele>
        <time>2021-09-26T11:33:03.315Z</time>
      </trkpt>
      <trkpt lat="49.41945" lon="0.96433">
        <ele>52</ele>
        <time>2021-09-26T11:33:08.538Z</time>
      </trkpt>
      <trkpt lat="49.41939" lon="0.96483">
        <ele>52</ele>
        <time>2021-09-26T11:33:13.767Z</time>
      </trkpt>
      <trkpt lat="49.41939" lon="0.96538">
        <ele>52</ele>
        <time>2021-09-26T11:33:19.003Z</time>
      </trkpt>
      <trkpt lat="49.41933" lon="0.96709">
        <ele>53</ele>
        <time>2021-09-26T11:33:24.262Z</time>
      </trkpt>
      <trkpt lat="49.41934" lon="0.96724">
        <ele>53</ele>
        <time>2021-09-26T11:33:29.523Z</time>
      </trkpt>
      <trkpt lat="49.41932" lon="0.96738">
        <ele>54</ele>
        <time>2021-09-26T11:33:34.786Z</time>
      </trkpt>
      <trkpt lat="49.41935" lon="0.96853">
        <ele>54</ele>
        <time>2021-09-26T11:33:40.064Z</time>
      </trkpt>
      <trkpt lat="49.4194" lon="0.96867">
        <ele>54</ele>
        <time>2021-09-26T11:33:45.344Z</time>
      </trkpt>
      <trkpt lat="49.41955" lon="0.96895">
        <ele>54</ele>
        <time>2021-09-26T11:33:50.629Z</time>
      </trkpt>
      <trkpt lat="49.41957" lon="0.96902">
        <ele>54</ele>
        <time>2021-09-26T11:33:55.915Z</time>
      </trkpt>
      <trkpt lat="49.41959" lon="0.96938">
        <ele>54</ele>
        <time>2021-09-26T11:34:01.205Z</time>
      </trkpt>
      <trkpt lat="49.41963" lon="0.96949">
        <ele>53</ele>
        <time>2021-09-26T11:34:06.497Z</time>
      </trkpt>
      <trkpt lat="49.41971" lon="0.96962">
        <ele>53</ele>
        <time>2021-09-26T11:34:11.791Z</time>
      </trkpt>
      <trkpt lat="49.42004" lon="0.97001">
        <ele>52</ele>
        <time>2021-09-26T11:34:17.094Z</time>
      </trkpt>
      <trkpt lat="49.42023" lon="0.97028">
        <ele>52</ele>
        <time>2021-09-26T11:34:22.402Z</time>
      </trkpt>
      <trkpt lat="49.42042" lon="0.97061">
        <ele>51</ele>
        <time>2021-09-26T11:34:27.715Z</time>
      </trkpt>
      <trkpt lat="49.4206" lon="0.97086">
        <ele>50</ele>
        <time>2021-09-26T11:34:33.033Z</time>
      </trkpt>
      <trkpt lat="49.42088" lon="0.97168">
        <ele>49</ele>
        <time>2021-09-26T11:34:38.363Z</time>
      </trkpt>
      <trkpt lat="49.42094" lon="0.97205">
        <ele>48</ele>
        <time>2021-09-26T11:34:43.698Z</time>
      </trkpt>
      <trkpt lat="49.42099" lon="0.97302">
        <ele>47</ele>
        <time>2021-09-26T11:34:49.046Z</time>
      </trkpt>
      <trkpt lat="49.42107" lon="0.97357">
        <ele>46</ele>
        <time>2021-09-26T11:34:54.402Z</time>
      </trkpt>
      <trkpt lat="49.42106" lon="0.97392">
        <ele>45</ele>
        <time>2021-09-26T11:34:59.762Z</time>
      </trkpt>
      <trkpt lat="49.42101" lon="0.9741">
        <ele>44</ele>
        <time>2021-09-26T11:35:05.125Z</time>
      </trkpt>
      <trkpt lat="49.42097" lon="0.97418">
        <ele>43</ele>
        <time>2021-09-26T11:35:10.489Z</time>
      </trkpt>
      <trkpt lat="49.42095" lon="0.97418">
        <ele>42</ele>
        <time>2021-09-26T11:35:15.853Z</time>
      </trkpt>
      <trkpt lat="49.42091" lon="0.97409">
        <ele>41</ele>
        <time>2021-09-26T11:35:21.219Z</time>
      </trkpt>
      <trkpt lat="49.42092" lon="0.97391">
        <ele>40</ele>
        <time>2021-09-26T11:35:26.587Z</time>
      </trkpt>
      <trkpt lat="49.42083" lon="0.97343">
        <ele>39</ele>
        <time>2021-09-26T11:35:31.962Z</time>
      </trkpt>
      <trkpt lat="49.42085" lon="0.97289">
        <ele>39</ele>
        <time>2021-09-26T11:35:37.344Z</time>
      </trkpt>
      <trkpt lat="49.42083" lon="0.97277">
        <ele>38</ele>
        <time>2021-09-26T11:35:42.727Z</time>
      </trkpt>
      <trkpt lat="49.42077" lon="0.97273">
        <ele>38</ele>
        <time>2021-09-26T11:35:48.112Z</time>
      </trkpt>
      <trkpt lat="49.42064" lon="0.97277">
        <ele>37</ele>
        <time>2021-09-26T11:35:53.499Z</time>
      </trkpt>
      <trkpt lat="49.42059" lon="0.97275">
        <ele>37</ele>
        <time>2021-09-26T11:35:58.887Z</time>
      </trkpt>
      <trkpt lat="49.42022" lon="0.97298">
        <ele>37</ele>
        <time>2021-09-26T11:36:04.283Z</time>
      </trkpt>
      <trkpt lat="49.42" lon="0.97302">
        <ele>37</ele>
        <time>2021-09-26T11:36:09.684Z</time>
      </trkpt>
      <trkpt lat="49.41964" lon="0.97319">
        <ele>37</ele>
        <time>2021-09-26T11:36:15.092Z</time>
      </trkpt>
      <trkpt lat="49.41955" lon="0.97321">
        <ele>38</ele>
        <time>2021-09-26T11:36:20.502Z</time>
      </trkpt>
      <trkpt lat="49.41908" lon="0.97331">
        <ele>39</ele>
        <time>2021-09-26T11:36:25.922Z</time>
      </trkpt>
      <trkpt lat="49.41873" lon="0.97329">
        <ele>40</ele>
        <time>2021-09-26T11:36:31.349Z</time>
      </trkpt>
      <trkpt lat="49.41845" lon="0.97323">
        <ele>40</ele>
        <time>2021-09-26T11:36:36.781Z</time>
      </trkpt>
      <trkpt lat="49.41835" lon="0.97329">
        <ele>42</ele>
        <time>2021-09-26T11:36:42.215Z</time>
      </trkpt>
      <trkpt lat="49.41831" lon="0.97328">
        <ele>43</ele>
        <time>2021-09-26T11:36:47.650Z</time>
      </trkpt>
      <trkpt lat="49.41823" lon="0.97319">
        <ele>44</ele>
        <time>2021-09-26T11:36:53.087Z</time>
      </trkpt>
      <trkpt lat="49.41818" lon="0.97315">
        <ele>45</ele>
        <time>2021-09-26T11:36:58.525Z</time>
      </trkpt>
      <trkpt lat="49.41777" lon="0.97294">
        <ele>47</ele>
        <time>2021-09-26T11:37:03.972Z</time>
      </trkpt>
      <trkpt lat="49.41761" lon="0.97289">
        <ele>48</ele>
        <time>2021-09-26T11:37:09.422Z</time>
      </trkpt>
      <trkpt lat="49.41743" lon="0.97294">
        <ele>50</ele>
        <time>2021-09-26T11:37:14.876Z</time>
      </trkpt>
      <trkpt lat="49.41734" lon="0.9729">
        <ele>52</ele>
        <time>2021-09-26T11:37:20.332Z</time>
      </trkpt>
      <trkpt lat="49.41721" lon="0.97275">
        <ele>54</ele>
        <time>2021-09-26T11:37:25.791Z</time>
      </trkpt>
      <trkpt lat="49.41703" lon="0.97244">
        <ele>56</ele>
        <time>2021-09-26T11:37:31.255Z</time>
      </trkpt>
      <trkpt lat="49.41685" lon="0.97227">
        <ele>58</ele>
        <time>2021-09-26T11:37:36.724Z</time>
      </trkpt>
      <trkpt lat="49.41662" lon="0.97219">
        <ele>60</ele>
        <time>2021-09-26T11:37:42.197Z</time>
      </trkpt>
      <trkpt lat="49.41644" lon="0.97206">
        <ele>62</ele>
        <time>2021-09-26T11:37:47.674Z</time>
      </trkpt>
      <trkpt lat="49.41635" lon="0.97202">
        <ele>65</ele>
        <time>2021-09-26T11:37:53.153Z</time>
      </trkpt>
      <trkpt lat="49.41631" lon="0.97199">
        <ele>67</ele>
        <time>2021-09-26T11:37:58.633Z</time>
      </trkpt>
      <trkpt lat="49.41623" lon="0.97196">
        <ele>69</ele>
        <time>2021-09-26T11:38:04.115Z</time>
      </trkpt>
      <trkpt lat="49.41605" lon="0.97202">
        <ele>71</ele>
        <time>2021-09-26T11:38:09.600Z</time>
      </trkpt>
      <trkpt lat="49.4159" lon="0.97201">
        <ele>74</ele>
        <time>2021-09-26T11:38:15.088Z</time>
      </trkpt>
      <trkpt lat="49.41577" lon="0.97193">
        <ele>76</ele>
        <time>2021-09-26T11:38:20.579Z</time>
      </trkpt>
      <trkpt lat="49.41564" lon="0.97181">
        <ele>78</ele>
        <time>2021-09-26T11:38:26.073Z</time>
      </trkpt>
      <trkpt lat="49.41557" lon="0.97159">
        <ele>80</ele>
        <time>2021-09-26T11:38:31.570Z</time>
      </trkpt>
      <trkpt lat="49.41552" lon="0.97109">
        <ele>82</ele>
        <time>2021-09-26T11:38:37.074Z</time>
      </trkpt>
      <trkpt lat="49.41557" lon="0.97068">
        <ele>83</ele>
        <time>2021-09-26T11:38:42.584Z</time>
      </trkpt>
      <trkpt lat="49.41557" lon="0.97036">
        <ele>84</ele>
        <time>2021-09-26T11:38:48.098Z</time>
      </trkpt>
      <trkpt lat="49.41555" lon="0.97016">
        <ele>86</ele>
        <time>2021-09-26T11:38:53.614Z</time>
      </trkpt>
      <trkpt lat="49.41549" lon="0.96988">
        <ele>87</ele>
        <time>2021-09-26T11:38:59.134Z</time>
      </trkpt>
      <trkpt lat="49.4154" lon="0.96969">
        <ele>88</ele>
        <time>2021-09-26T11:39:04.657Z</time>
      </trkpt>
      <trkpt lat="49.41531" lon="0.96955">
        <ele>89</ele>
        <time>2021-09-26T11:39:10.183Z</time>
      </trkpt>
      <trkpt lat="49.41522" lon="0.96923">
        <ele>89</ele>
        <time>2021-09-26T11:39:15.714Z</time>
      </trkpt>
      <trkpt lat="49.4151" lon="0.96891">
        <ele>90</ele>
        <time>2021-09-26T11:39:21.249Z</time>
      </trkpt>
      <trkpt lat="49.41502" lon="0.96877">
        <ele>90</ele>
        <time>2021-09-26T11:39:26.787Z</time>
      </trkpt>
      <trkpt lat="49.41484" lon="0.96856">
        <ele>91</ele>
        <time>2021-09-26T11:39:32.329Z</time>
      </trkpt>
      <trkpt lat="49.41479" lon="0.96843">
        <ele>91</ele>
        <time>2021-09-26T11:39:37.873Z</time>
      </trkpt>
      <trkpt lat="49.41477" lon="0.96778">
        <ele>92</ele>
        <time>2021-09-26T11:39:43.426Z</time>
      </trkpt>
      <trkpt lat="49.41475" lon="0.96763">
        <ele>92</ele>
        <time>2021-09-26T11:39:48.981Z</time>
      </trkpt>
      <trkpt lat="49.41456" lon="0.96715">
        <ele>93</ele>
        <time>2021-09-26T11:39:54.543Z</time>
      </trkpt>
      <trkpt lat="49.41449" lon="0.96695">
        <ele>93</ele>
        <time>2021-09-26T11:40:00.108Z</time>
      </trkpt>
      <trkpt lat="49.41441" lon="0.96664">
        <ele>94</ele>
        <time>2021-09-26T11:40:05.677Z</time>
      </trkpt>
      <trkpt lat="49.41437" lon="0.96629">
        <ele>94</ele>
        <time>2021-09-26T11:40:11.251Z</time>
      </trkpt>
      <trkpt lat="49.41433" lon="0.96619">
        <ele>94</ele>
        <time>2021-09-26T11:40:16.827Z</time>
      </trkpt>
      <trkpt lat="49.41423" lon="0.966">
        <ele>95</ele>
        <time>2021-09-26T11:40:22.406Z</time>
      </trkpt>
      <trkpt lat="49.41406" lon="0.96549">
        <ele>95</ele>
        <time>2021-09-26T11:40:27.992Z</time>
      </trkpt>
      <trkpt lat="49.41394" lon="0.96536">
        <ele>95</ele>
        <time>2021-09-26T11:40:33.581Z</time>
      </trkpt>
      <trkpt lat="49.41388" lon="0.96522">
        <ele>96</ele>
        <time>2021-09-26T11:40:39.172Z</time>
      </trkpt>
      <trkpt lat="49.41384" lon="0.96498">
        <ele>96</ele>
        <time>2021-09-26T11:40:44.767Z</time>
      </trkpt>
      <trkpt lat="49.41386" lon="0.96436">
        <ele>97</ele>
        <time>2021-09-26T11:40:50.370Z</time>
      </trkpt>
      <trkpt lat="49.41383" lon="0.96399">
        <ele>97</ele>
        <time>2021-09-26T11:40:55.978Z</time>
      </trkpt>
      <trkpt lat="49.41384" lon="0.96341">
        <ele>98</ele>
        <time>2021-09-26T11:41:01.593Z</time>
      </trkpt>
      <trkpt lat="49.41379" lon="0.96326">
        <ele>99</ele>
        <time>2021-09-26T11:41:07.210Z</time>
      </trkpt>
      <trkpt lat="49.41373" lon="0.96316">
        <ele>99</ele>
        <time>2021-09-26T11:41:12.829Z</time>
      </trkpt>
      <trkpt lat="49.41367" lon="0.96311">
        <ele>100</ele>
        <time>2021-09-26T11:41:18.449Z</time>
      </trkpt>
      <trkpt lat="49.41362" lon="0.96309">
        <ele>101</ele>
        <time>2021-09-26T11:41:24.071Z</time>
      </trkpt>
      <trkpt lat="49.41357" lon="0.9631">
        <ele>103</ele>
        <time>2021-09-26T11:41:29.694Z</time>
      </trkpt>
      <trkpt lat="49.41345" lon="0.96316">
        <ele>104</ele>
        <time>2021-09-26T11:41:35.319Z</time>
      </trkpt>
      <trkpt lat="49.41312" lon="0.96322">
        <ele>105</ele>
        <time>2021-09-26T11:41:40.951Z</time>
      </trkpt>
      <trkpt lat="49.41291" lon="0.96338">
        <ele>107</ele>
        <time>2021-09-26T11:41:46.587Z</time>
      </trkpt>
      <trkpt lat="49.41267" lon="0.96351">
        <ele>108</ele>
        <time>2021-09-26T11:41:52.229Z</time>
      </trkpt>
      <trkpt lat="49.41257" lon="0.9636">
        <ele>110</ele>
        <time>2021-09-26T11:41:57.873Z</time>
      </trkpt>
      <trkpt lat="49.41242" lon="0.96386">
        <ele>111</ele>
        <time>2021-09-26T11:42:03.521Z</time>
      </trkpt>
      <trkpt lat="49.41221" lon="0.9643">
        <ele>112</ele>
        <time>2021-09-26T11:42:09.177Z</time>
      </trkpt>
      <trkpt lat="49.41211" lon="0.96443">
        <ele>113</ele>
        <time>2021-09-26T11:42:14.835Z</time>
      </trkpt>
      <trkpt lat="49.41193" lon="0.96476">
        <ele>115</ele>
        <time>2021-09-26T11:42:20.499Z</time>
      </trkpt>
      <trkpt lat="49.41167" lon="0.96516">
        <ele>116</ele>
        <time>2021-09-26T11:42:26.170Z</time>
      </trkpt>
      <trkpt lat="49.41139" lon="0.96556">
        <ele>117</ele>
        <time>2021-09-26T11:42:31.849Z</time>
      </trkpt>
      <trkpt lat="49.41107" lon="0.96615">
        <ele>118</ele>
        <time>2021-09-26T11:42:37.538Z</time>
      </trkpt>
      <trkpt lat="49.41081" lon="0.96655">
        <ele>119</ele>
        <time>2021-09-26T11:42:43.234Z</time>
      </trkpt>
      <trkpt lat="49.41075" lon="0.96661">
        <ele>120</ele>
        <time>2021-09-26T11:42:48.932Z</time>
      </trkpt>
      <trkpt lat="49.41055" lon="0.96678">
        <ele>120</ele>
        <time>2021-09-26T11:42:54.634Z</time>
      </trkpt>
      <trkpt lat="49.41035" lon="0.967">
        <ele>121</ele>
        <time>2021-09-26T11:43:00.341Z</time>
      </trkpt>
      <trkpt lat="49.40997" lon="0.96734">
        <ele>121</ele>
        <time>2021-09-26T11:43:06.057Z</time>
      </trkpt>
      <trkpt lat="49.40985" lon="0.96743">
        <ele>122</ele>
        <time>2021-09-26T11:43:11.776Z</time>
      </trkpt>
      <trkpt lat="49.40964" lon="0.96752">
        <ele>122</ele>
        <time>2021-09-26T11:43:17.499Z</time>
      </trkpt>
      <trkpt lat="49.40955" lon="0.96752">
        <ele>122</ele>
        <time>2021-09-26T11:43:23.224Z</time>
      </trkpt>
      <trkpt lat="49.41152" lon="0.97408">
        <ele>116</ele>
        <time>2021-09-26T11:43:28.952Z</time>
      </trkpt>
      <trkpt lat="49.41152" lon="0.97411">
        <ele>116</ele>
        <time>2021-09-26T12:05:50.723Z</time>
      </trkpt>
      <trkpt lat="49.41133" lon="0.97424">
        <ele>114</ele>
        <time>2021-09-26T12:05:57.706Z</time>
      </trkpt>
      <trkpt lat="49.41142" lon="0.97431">
        <ele>114</ele>
        <time>2021-09-26T12:06:04.691Z</time>
      </trkpt>
      <trkpt lat="49.41148" lon="0.9744">
        <ele>114</ele>
        <time>2021-09-26T12:06:11.678Z</time>
      </trkpt>
      <trkpt lat="49.41178" lon="0.9751">
        <ele>114</ele>
        <time>2021-09-26T12:06:18.676Z</time>
      </trkpt>
      <trkpt lat="49.41188" lon="0.97539">
        <ele>115</ele>
        <time>2021-09-26T12:06:25.678Z</time>
      </trkpt>
      <trkpt lat="49.41218" lon="0.97632">
        <ele>115</ele>
        <time>2021-09-26T12:06:32.694Z</time>
      </trkpt>
      <trkpt lat="49.41222" lon="0.97653">
        <ele>115</ele>
        <time>2021-09-26T12:06:39.713Z</time>
      </trkpt>
      <trkpt lat="49.41235" lon="0.97691">
        <ele>115</ele>
        <time>2021-09-26T12:06:46.737Z</time>
      </trkpt>
      <trkpt lat="49.41258" lon="0.97742">
        <ele>116</ele>
        <time>2021-09-26T12:06:53.769Z</time>
      </trkpt>
      <trkpt lat="49.4127" lon="0.97767">
        <ele>116</ele>
        <time>2021-09-26T12:07:00.805Z</time>
      </trkpt>
      <trkpt lat="49.41269" lon="0.97774">
        <ele>117</ele>
        <time>2021-09-26T12:07:07.842Z</time>
      </trkpt>
      <trkpt lat="49.41272" lon="0.97792">
        <ele>118</ele>
        <time>2021-09-26T12:07:14.882Z</time>
      </trkpt>
      <trkpt lat="49.41288" lon="0.97826">
        <ele>119</ele>
        <time>2021-09-26T12:07:21.927Z</time>
      </trkpt>
      <trkpt lat="49.41298" lon="0.97841">
        <ele>121</ele>
        <time>2021-09-26T12:07:28.975Z</time>
      </trkpt>
      <trkpt lat="49.41312" lon="0.97874">
        <ele>122</ele>
        <time>2021-09-26T12:07:36.028Z</time>
      </trkpt>
      <trkpt lat="49.41325" lon="0.97914">
        <ele>123</ele>
        <time>2021-09-26T12:07:43.087Z</time>
      </trkpt>
      <trkpt lat="49.41344" lon="0.97961">
        <ele>125</ele>
        <time>2021-09-26T12:07:50.153Z</time>
      </trkpt>
      <trkpt lat="49.41354" lon="0.97989">
        <ele>126</ele>
        <time>2021-09-26T12:07:57.223Z</time>
      </trkpt>
      <trkpt lat="49.41396" lon="0.98134">
        <ele>127</ele>
        <time>2021-09-26T12:08:04.314Z</time>
      </trkpt>
      <trkpt lat="49.41418" lon="0.98193">
        <ele>128</ele>
        <time>2021-09-26T12:08:11.414Z</time>
      </trkpt>
      <trkpt lat="49.41434" lon="0.98228">
        <ele>129</ele>
        <time>2021-09-26T12:08:18.519Z</time>
      </trkpt>
      <trkpt lat="49.4144" lon="0.98234">
        <ele>129</ele>
        <time>2021-09-26T12:08:25.626Z</time>
      </trkpt>
      <trkpt lat="49.41449" lon="0.9824">
        <ele>130</ele>
        <time>2021-09-26T12:08:32.735Z</time>
      </trkpt>
      <trkpt lat="49.41475" lon="0.98249">
        <ele>131</ele>
        <time>2021-09-26T12:08:39.849Z</time>
      </trkpt>
      <trkpt lat="49.41482" lon="0.98246">
        <ele>131</ele>
        <time>2021-09-26T12:08:46.965Z</time>
      </trkpt>
      <trkpt lat="49.41487" lon="0.98241">
        <ele>131</ele>
        <time>2021-09-26T12:08:54.082Z</time>
      </trkpt>
      <trkpt lat="49.41513" lon="0.98234">
        <ele>131</ele>
        <time>2021-09-26T12:09:01.204Z</time>
      </trkpt>
      <trkpt lat="49.41526" lon="0.98227">
        <ele>131</ele>
        <time>2021-09-26T12:09:08.329Z</time>
      </trkpt>
      <trkpt lat="49.41542" lon="0.98222">
        <ele>131</ele>
        <time>2021-09-26T12:09:15.457Z</time>
      </trkpt>
      <trkpt lat="49.41553" lon="0.98225">
        <ele>130</ele>
        <time>2021-09-26T12:09:22.587Z</time>
      </trkpt>
      <trkpt lat="49.41581" lon="0.98229">
        <ele>129</ele>
        <time>2021-09-26T12:09:29.723Z</time>
      </trkpt>
      <trkpt lat="49.41595" lon="0.98227">
        <ele>128</ele>
        <time>2021-09-26T12:09:36.862Z</time>
      </trkpt>
      <trkpt lat="49.41602" lon="0.98228">
        <ele>127</ele>
        <time>2021-09-26T12:09:44.002Z</time>
      </trkpt>
      <trkpt lat="49.41624" lon="0.98238">
        <ele>125</ele>
        <time>2021-09-26T12:09:51.147Z</time>
      </trkpt>
      <trkpt lat="49.41645" lon="0.98253">
        <ele>123</ele>
        <time>2021-09-26T12:09:58.297Z</time>
      </trkpt>
      <trkpt lat="49.41669" lon="0.98264">
        <ele>121</ele>
        <time>2021-09-26T12:10:05.452Z</time>
      </trkpt>
      <trkpt lat="49.41706" lon="0.98269">
        <ele>119</ele>
        <time>2021-09-26T12:10:12.614Z</time>
      </trkpt>
      <trkpt lat="49.41751" lon="0.98268">
        <ele>117</ele>
        <time>2021-09-26T12:10:19.785Z</time>
      </trkpt>
      <trkpt lat="49.41766" lon="0.98262">
        <ele>114</ele>
        <time>2021-09-26T12:10:26.959Z</time>
      </trkpt>
      <trkpt lat="49.41789" lon="0.98239">
        <ele>111</ele>
        <time>2021-09-26T12:10:34.139Z</time>
      </trkpt>
      <trkpt lat="49.41813" lon="0.98225">
        <ele>108</ele>
        <time>2021-09-26T12:10:41.324Z</time>
      </trkpt>
      <trkpt lat="49.41856" lon="0.98195">
        <ele>104</ele>
        <time>2021-09-26T12:10:48.518Z</time>
      </trkpt>
      <trkpt lat="49.41947" lon="0.98145">
        <ele>100</ele>
        <time>2021-09-26T12:10:55.732Z</time>
      </trkpt>
      <trkpt lat="49.41965" lon="0.98138">
        <ele>96</ele>
        <time>2021-09-26T12:11:02.949Z</time>
      </trkpt>
      <trkpt lat="49.41997" lon="0.9813">
        <ele>92</ele>
        <time>2021-09-26T12:11:10.173Z</time>
      </trkpt>
      <trkpt lat="49.42009" lon="0.98126">
        <ele>89</ele>
        <time>2021-09-26T12:11:17.399Z</time>
      </trkpt>
      <trkpt lat="49.42022" lon="0.98116">
        <ele>85</ele>
        <time>2021-09-26T12:11:24.628Z</time>
      </trkpt>
      <trkpt lat="49.42043" lon="0.98096">
        <ele>81</ele>
        <time>2021-09-26T12:11:31.862Z</time>
      </trkpt>
      <trkpt lat="49.42058" lon="0.98076">
        <ele>77</ele>
        <time>2021-09-26T12:11:39.100Z</time>
      </trkpt>
      <trkpt lat="49.42074" lon="0.9804">
        <ele>73</ele>
        <time>2021-09-26T12:11:46.344Z</time>
      </trkpt>
      <trkpt lat="49.42096" lon="0.97998">
        <ele>69</ele>
        <time>2021-09-26T12:11:53.595Z</time>
      </trkpt>
      <trkpt lat="49.42117" lon="0.97947">
        <ele>65</ele>
        <time>2021-09-26T12:12:00.854Z</time>
      </trkpt>
      <trkpt lat="49.42123" lon="0.97937">
        <ele>62</ele>
        <time>2021-09-26T12:12:08.114Z</time>
      </trkpt>
      <trkpt lat="49.4213" lon="0.97932">
        <ele>59</ele>
        <time>2021-09-26T12:12:15.376Z</time>
      </trkpt>
      <trkpt lat="49.42138" lon="0.97932">
        <ele>55</ele>
        <time>2021-09-26T12:12:22.640Z</time>
      </trkpt>
      <trkpt lat="49.42145" lon="0.97933">
        <ele>53</ele>
        <time>2021-09-26T12:12:29.905Z</time>
      </trkpt>
      <trkpt lat="49.42188" lon="0.97955">
        <ele>50</ele>
        <time>2021-09-26T12:12:37.179Z</time>
      </trkpt>
      <trkpt lat="49.42199" lon="0.97963">
        <ele>47</ele>
        <time>2021-09-26T12:12:44.455Z</time>
      </trkpt>
      <trkpt lat="49.42205" lon="0.97964">
        <ele>45</ele>
        <time>2021-09-26T12:12:51.733Z</time>
      </trkpt>
      <trkpt lat="49.42225" lon="0.97956">
        <ele>43</ele>
        <time>2021-09-26T12:12:59.015Z</time>
      </trkpt>
      <trkpt lat="49.42239" lon="0.97953">
        <ele>42</ele>
        <time>2021-09-26T12:13:06.300Z</time>
      </trkpt>
      <trkpt lat="49.42255" lon="0.97952">
        <ele>40</ele>
        <time>2021-09-26T12:13:13.588Z</time>
      </trkpt>
      <trkpt lat="49.42272" lon="0.97955">
        <ele>39</ele>
        <time>2021-09-26T12:13:20.879Z</time>
      </trkpt>
      <trkpt lat="49.42288" lon="0.97966">
        <ele>38</ele>
        <time>2021-09-26T12:13:28.174Z</time>
      </trkpt>
      <trkpt lat="49.42324" lon="0.98011">
        <ele>38</ele>
        <time>2021-09-26T12:13:35.478Z</time>
      </trkpt>
      <trkpt lat="49.42353" lon="0.98039">
        <ele>38</ele>
        <time>2021-09-26T12:13:42.789Z</time>
      </trkpt>
      <trkpt lat="49.4236" lon="0.98042">
        <ele>38</ele>
        <time>2021-09-26T12:13:50.101Z</time>
      </trkpt>
      <trkpt lat="49.42369" lon="0.98041">
        <ele>39</ele>
        <time>2021-09-26T12:13:57.415Z</time>
      </trkpt>
      <trkpt lat="49.42377" lon="0.98052">
        <ele>40</ele>
        <time>2021-09-26T12:14:04.731Z</time>
      </trkpt>
      <trkpt lat="49.42401" lon="0.98067">
        <ele>41</ele>
        <time>2021-09-26T12:14:12.053Z</time>
      </trkpt>
      <trkpt lat="49.42417" lon="0.98071">
        <ele>42</ele>
        <time>2021-09-26T12:14:19.378Z</time>
      </trkpt>
      <trkpt lat="49.42436" lon="0.98065">
        <ele>44</ele>
        <time>2021-09-26T12:14:26.707Z</time>
      </trkpt>
      <trkpt lat="49.4245" lon="0.98058">
        <ele>47</ele>
        <time>2021-09-26T12:14:34.039Z</time>
      </trkpt>
      <trkpt lat="49.42474" lon="0.98038">
        <ele>49</ele>
        <time>2021-09-26T12:14:41.376Z</time>
      </trkpt>
      <trkpt lat="49.42489" lon="0.98018">
        <ele>52</ele>
        <time>2021-09-26T12:14:48.717Z</time>
      </trkpt>
      <trkpt lat="49.42522" lon="0.9798">
        <ele>55</ele>
        <time>2021-09-26T12:14:56.066Z</time>
      </trkpt>
      <trkpt lat="49.42534" lon="0.97959">
        <ele>58</ele>
        <time>2021-09-26T12:15:03.419Z</time>
      </trkpt>
      <trkpt lat="49.42539" lon="0.97947">
        <ele>61</ele>
        <time>2021-09-26T12:15:10.774Z</time>
      </trkpt>
      <trkpt lat="49.42542" lon="0.97933">
        <ele>64</ele>
        <time>2021-09-26T12:15:18.131Z</time>
      </trkpt>
      <trkpt lat="49.42551" lon="0.97914">
        <ele>66</ele>
        <time>2021-09-26T12:15:25.491Z</time>
      </trkpt>
      <trkpt lat="49.42562" lon="0.97895">
        <ele>69</ele>
        <time>2021-09-26T12:15:32.854Z</time>
      </trkpt>
      <trkpt lat="49.4259" lon="0.97838">
        <ele>72</ele>
        <time>2021-09-26T12:15:40.226Z</time>
      </trkpt>
      <trkpt lat="49.42596" lon="0.97829">
        <ele>75</ele>
        <time>2021-09-26T12:15:47.600Z</time>
      </trkpt>
      <trkpt lat="49.42616" lon="0.9781">
        <ele>77</ele>
        <time>2021-09-26T12:15:54.979Z</time>
      </trkpt>
      <trkpt lat="49.42622" lon="0.97799">
        <ele>79</ele>
        <time>2021-09-26T12:16:02.360Z</time>
      </trkpt>
      <trkpt lat="49.42632" lon="0.97752">
        <ele>81</ele>
        <time>2021-09-26T12:16:09.747Z</time>
      </trkpt>
      <trkpt lat="49.42643" lon="0.97712">
        <ele>83</ele>
        <time>2021-09-26T12:16:17.140Z</time>
      </trkpt>
      <trkpt lat="49.42647" lon="0.97707">
        <ele>85</ele>
        <time>2021-09-26T12:16:24.534Z</time>
      </trkpt>
      <trkpt lat="49.42652" lon="0.97705">
        <ele>86</ele>
        <time>2021-09-26T12:16:31.929Z</time>
      </trkpt>
      <trkpt lat="49.42658" lon="0.97709">
        <ele>88</ele>
        <time>2021-09-26T12:16:39.325Z</time>
      </trkpt>
      <trkpt lat="49.42664" lon="0.97714">
        <ele>89</ele>
        <time>2021-09-26T12:16:46.723Z</time>
      </trkpt>
      <trkpt lat="49.4268" lon="0.97738">
        <ele>90</ele>
        <time>2021-09-26T12:16:54.125Z</time>
      </trkpt>
      <trkpt lat="49.42753" lon="0.97879">
        <ele>90</ele>
        <time>2021-09-26T12:17:01.551Z</time>
      </trkpt>
      <trkpt lat="49.4276" lon="0.9789">
        <ele>91</ele>
        <time>2021-09-26T12:17:08.979Z</time>
      </trkpt>
      <trkpt lat="49.42776" lon="0.97906">
        <ele>91</ele>
        <time>2021-09-26T12:17:16.410Z</time>
      </trkpt>
      <trkpt lat="49.42793" lon="0.97919">
        <ele>91</ele>
        <time>2021-09-26T12:17:23.845Z</time>
      </trkpt>
      <trkpt lat="49.42813" lon="0.9793">
        <ele>91</ele>
        <time>2021-09-26T12:17:31.285Z</time>
      </trkpt>
      <trkpt lat="49.42842" lon="0.97949">
        <ele>91</ele>
        <time>2021-09-26T12:17:38.731Z</time>
      </trkpt>
      <trkpt lat="49.42878" lon="0.97968">
        <ele>91</ele>
        <time>2021-09-26T12:17:46.185Z</time>
      </trkpt>
      <trkpt lat="49.42932" lon="0.98001">
        <ele>90</ele>
        <time>2021-09-26T12:17:53.650Z</time>
      </trkpt>
      <trkpt lat="49.42967" lon="0.98026">
        <ele>89</ele>
        <time>2021-09-26T12:18:01.123Z</time>
      </trkpt>
      <trkpt lat="49.43008" lon="0.9805">
        <ele>88</ele>
        <time>2021-09-26T12:18:08.605Z</time>
      </trkpt>
      <trkpt lat="49.43049" lon="0.9808">
        <ele>87</ele>
        <time>2021-09-26T12:18:16.096Z</time>
      </trkpt>
      <trkpt lat="49.43112" lon="0.98119">
        <ele>86</ele>
        <time>2021-09-26T12:18:23.600Z</time>
      </trkpt>
      <trkpt lat="49.43149" lon="0.98147">
        <ele>85</ele>
        <time>2021-09-26T12:18:31.113Z</time>
      </trkpt>
      <trkpt lat="49.43199" lon="0.98175">
        <ele>83</ele>
        <time>2021-09-26T12:18:38.636Z</time>
      </trkpt>
      <trkpt lat="49.43247" lon="0.98206">
        <ele>82</ele>
        <time>2021-09-26T12:18:46.170Z</time>
      </trkpt>
      <trkpt lat="49.43275" lon="0.98226">
        <ele>80</ele>
        <time>2021-09-26T12:18:53.710Z</time>
      </trkpt>
      <trkpt lat="49.43281" lon="0.98235">
        <ele>79</ele>
        <time>2021-09-26T12:19:01.251Z</time>
      </trkpt>
      <trkpt lat="49.43283" lon="0.98261">
        <ele>77</ele>
        <time>2021-09-26T12:19:08.796Z</time>
      </trkpt>
      <trkpt lat="49.43277" lon="0.98349">
        <ele>76</ele>
        <time>2021-09-26T12:19:16.353Z</time>
      </trkpt>
      <trkpt lat="49.43246" lon="0.98621">
        <ele>74</ele>
        <time>2021-09-26T12:19:23.946Z</time>
      </trkpt>
      <trkpt lat="49.43234" lon="0.98709">
        <ele>72</ele>
        <time>2021-09-26T12:19:31.550Z</time>
      </trkpt>
      <trkpt lat="49.43231" lon="0.98739">
        <ele>71</ele>
        <time>2021-09-26T12:19:39.158Z</time>
      </trkpt>
      <trkpt lat="49.43224" lon="0.98786">
        <ele>70</ele>
        <time>2021-09-26T12:19:46.773Z</time>
      </trkpt>
      <trkpt lat="49.43226" lon="0.9879">
        <ele>69</ele>
        <time>2021-09-26T12:19:54.388Z</time>
      </trkpt>
      <trkpt lat="49.43247" lon="0.98798">
        <ele>68</ele>
        <time>2021-09-26T12:20:02.008Z</time>
      </trkpt>
      <trkpt lat="49.4329" lon="0.98811">
        <ele>67</ele>
        <time>2021-09-26T12:20:09.636Z</time>
      </trkpt>
      <trkpt lat="49.43296" lon="0.98814">
        <ele>67</ele>
        <time>2021-09-26T12:20:17.266Z</time>
      </trkpt>
      <trkpt lat="49.43296" lon="0.98821">
        <ele>67</ele>
        <time>2021-09-26T12:20:24.897Z</time>
      </trkpt>
      <trkpt lat="49.43291" lon="0.98837">
        <ele>67</ele>
        <time>2021-09-26T12:20:32.530Z</time>
      </trkpt>
      <trkpt lat="49.43243" lon="0.98932">
        <ele>67</ele>
        <time>2021-09-26T12:20:40.179Z</time>
      </trkpt>
      <trkpt lat="49.43241" lon="0.98942">
        <ele>68</ele>
        <time>2021-09-26T12:20:47.829Z</time>
      </trkpt>
      <trkpt lat="49.43199" lon="0.99037">
        <ele>69</ele>
        <time>2021-09-26T12:20:55.494Z</time>
      </trkpt>
      <trkpt lat="49.43186" lon="0.9907">
        <ele>70</ele>
        <time>2021-09-26T12:21:03.164Z</time>
      </trkpt>
      <trkpt lat="49.4316" lon="0.99125">
        <ele>71</ele>
        <time>2021-09-26T12:21:10.843Z</time>
      </trkpt>
      <trkpt lat="49.43113" lon="0.99236">
        <ele>71</ele>
        <time>2021-09-26T12:21:18.539Z</time>
      </trkpt>
      <trkpt lat="49.43104" lon="0.9925">
        <ele>72</ele>
        <time>2021-09-26T12:21:26.238Z</time>
      </trkpt>
      <trkpt lat="49.43092" lon="0.99282">
        <ele>73</ele>
        <time>2021-09-26T12:21:33.942Z</time>
      </trkpt>
      <trkpt lat="49.43031" lon="0.99422">
        <ele>75</ele>
        <time>2021-09-26T12:21:41.668Z</time>
      </trkpt>
      <trkpt lat="49.43025" lon="0.99439">
        <ele>76</ele>
        <time>2021-09-26T12:21:49.396Z</time>
      </trkpt>
      <trkpt lat="49.43023" lon="0.99455">
        <ele>77</ele>
        <time>2021-09-26T12:21:57.126Z</time>
      </trkpt>
      <trkpt lat="49.43025" lon="0.99459">
        <ele>78</ele>
        <time>2021-09-26T12:22:04.857Z</time>
      </trkpt>
      <trkpt lat="49.43031" lon="0.99462">
        <ele>79</ele>
        <time>2021-09-26T12:22:12.589Z</time>
      </trkpt>
      <trkpt lat="49.43053" lon="0.99456">
        <ele>80</ele>
        <time>2021-09-26T12:22:20.326Z</time>
      </trkpt>
      <trkpt lat="49.43057" lon="0.99458">
        <ele>81</ele>
        <time>2021-09-26T12:22:28.064Z</time>
      </trkpt>
      <trkpt lat="49.43064" lon="0.99466">
        <ele>82</ele>
        <time>2021-09-26T12:22:35.803Z</time>
      </trkpt>
      <trkpt lat="49.43072" lon="0.99521">
        <ele>83</ele>
        <time>2021-09-26T12:22:43.550Z</time>
      </trkpt>
      <trkpt lat="49.43085" lon="0.99645">
        <ele>83</ele>
        <time>2021-09-26T12:22:51.313Z</time>
      </trkpt>
      <trkpt lat="49.43097" lon="0.99769">
        <ele>84</ele>
        <time>2021-09-26T12:22:59.092Z</time>
      </trkpt>
      <trkpt lat="49.43107" lon="0.9983">
        <ele>85</ele>
        <time>2021-09-26T12:23:06.880Z</time>
      </trkpt>
      <trkpt lat="49.43111" lon="0.99844">
        <ele>86</ele>
        <time>2021-09-26T12:23:14.670Z</time>
      </trkpt>
      <trkpt lat="49.43121" lon="0.99861">
        <ele>87</ele>
        <time>2021-09-26T12:23:22.463Z</time>
      </trkpt>
      <trkpt lat="49.4315" lon="0.99901">
        <ele>87</ele>
        <time>2021-09-26T12:23:30.263Z</time>
      </trkpt>
      <trkpt lat="49.43167" lon="0.99922">
        <ele>87</ele>
        <time>2021-09-26T12:23:38.068Z</time>
      </trkpt>
      <trkpt lat="49.43185" lon="0.99941">
        <ele>88</ele>
        <time>2021-09-26T12:23:45.877Z</time>
      </trkpt>
      <trkpt lat="49.43202" lon="0.99964">
        <ele>88</ele>
        <time>2021-09-26T12:23:53.691Z</time>
      </trkpt>
      <trkpt lat="49.43228" lon="1.00011">
        <ele>88</ele>
        <time>2021-09-26T12:24:01.513Z</time>
      </trkpt>
      <trkpt lat="49.43266" lon="1.00072">
        <ele>89</ele>
        <time>2021-09-26T12:24:09.346Z</time>
      </trkpt>
      <trkpt lat="49.43304" lon="1.00127">
        <ele>89</ele>
        <time>2021-09-26T12:24:17.189Z</time>
      </trkpt>
      <trkpt lat="49.43323" lon="1.00158">
        <ele>89</ele>
        <time>2021-09-26T12:24:25.038Z</time>
      </trkpt>
      <trkpt lat="49.43374" lon="1.00234">
        <ele>89</ele>
        <time>2021-09-26T12:24:32.901Z</time>
      </trkpt>
      <trkpt lat="49.43391" lon="1.00262">
        <ele>89</ele>
        <time>2021-09-26T12:24:40.769Z</time>
      </trkpt>
      <trkpt lat="49.4343" lon="1.00309">
        <ele>89</ele>
        <time>2021-09-26T12:24:48.647Z</time>
      </trkpt>
      <trkpt lat="49.43484" lon="1.00386">
        <ele>89</ele>
        <time>2021-09-26T12:24:56.540Z</time>
      </trkpt>
      <trkpt lat="49.4351" lon="1.00427">
        <ele>89</ele>
        <time>2021-09-26T12:25:04.440Z</time>
      </trkpt>
      <trkpt lat="49.4355" lon="1.00479">
        <ele>88</ele>
        <time>2021-09-26T12:25:12.351Z</time>
      </trkpt>
      <trkpt lat="49.43565" lon="1.00492">
        <ele>88</ele>
        <time>2021-09-26T12:25:20.265Z</time>
      </trkpt>
      <trkpt lat="49.43581" lon="1.005">
        <ele>88</ele>
        <time>2021-09-26T12:25:28.182Z</time>
      </trkpt>
      <trkpt lat="49.43603" lon="1.00507">
        <ele>88</ele>
        <time>2021-09-26T12:25:36.104Z</time>
      </trkpt>
      <trkpt lat="49.43638" lon="1.00509">
        <ele>87</ele>
        <time>2021-09-26T12:25:44.033Z</time>
      </trkpt>
      <trkpt lat="49.43676" lon="1.00506">
        <ele>87</ele>
        <time>2021-09-26T12:25:51.970Z</time>
      </trkpt>
      <trkpt lat="49.43727" lon="1.00496">
        <ele>87</ele>
        <time>2021-09-26T12:25:59.917Z</time>
      </trkpt>
      <trkpt lat="49.43768" lon="1.00486">
        <ele>87</ele>
        <time>2021-09-26T12:26:07.872Z</time>
      </trkpt>
      <trkpt lat="49.43815" lon="1.00476">
        <ele>86</ele>
        <time>2021-09-26T12:26:15.837Z</time>
      </trkpt>
      <trkpt lat="49.43836" lon="1.00468">
        <ele>86</ele>
        <time>2021-09-26T12:26:23.806Z</time>
      </trkpt>
      <trkpt lat="49.43856" lon="1.00454">
        <ele>86</ele>
        <time>2021-09-26T12:26:31.779Z</time>
      </trkpt>
      <trkpt lat="49.43936" lon="1.00387">
        <ele>85</ele>
        <time>2021-09-26T12:26:39.771Z</time>
      </trkpt>
      <trkpt lat="49.43963" lon="1.00368">
        <ele>85</ele>
        <time>2021-09-26T12:26:47.769Z</time>
      </trkpt>
      <trkpt lat="49.43998" lon="1.00348">
        <ele>85</ele>
        <time>2021-09-26T12:26:55.774Z</time>
      </trkpt>
      <trkpt lat="49.44009" lon="1.00336">
        <ele>85</ele>
        <time>2021-09-26T12:27:03.782Z</time>
      </trkpt>
      <trkpt lat="49.44018" lon="1.00318">
        <ele>85</ele>
        <time>2021-09-26T12:27:11.793Z</time>
      </trkpt>
      <trkpt lat="49.4402" lon="1.00317">
        <ele>85</ele>
        <time>2021-09-26T12:27:19.804Z</time>
      </trkpt>
      <trkpt lat="49.44025" lon="1.00321">
        <ele>85</ele>
        <time>2021-09-26T12:27:27.816Z</time>
      </trkpt>
      <trkpt lat="49.4406" lon="1.00377">
        <ele>85</ele>
        <time>2021-09-26T12:27:35.838Z</time>
      </trkpt>
      <trkpt lat="49.44066" lon="1.00385">
        <ele>85</ele>
        <time>2021-09-26T12:27:43.862Z</time>
      </trkpt>
      <trkpt lat="49.44073" lon="1.00388">
        <ele>86</ele>
        <time>2021-09-26T12:27:51.887Z</time>
      </trkpt>
      <trkpt lat="49.44091" lon="1.00387">
        <ele>86</ele>
        <time>2021-09-26T12:27:59.916Z</time>
      </trkpt>
      <trkpt lat="49.44104" lon="1.00384">
        <ele>86</ele>
        <time>2021-09-26T12:28:07.948Z</time>
      </trkpt>
      <trkpt lat="49.44128" lon="1.00382">
        <ele>87</ele>
        <time>2021-09-26T12:28:15.984Z</time>
      </trkpt>
      <trkpt lat="49.44163" lon="1.00365">
        <ele>88</ele>
        <time>2021-09-26T12:28:24.028Z</time>
      </trkpt>
      <trkpt lat="49.44189" lon="1.0036">
        <ele>89</ele>
        <time>2021-09-26T12:28:32.077Z</time>
      </trkpt>
      <trkpt lat="49.44217" lon="1.00349">
        <ele>89</ele>
        <time>2021-09-26T12:28:40.132Z</time>
      </trkpt>
      <trkpt lat="49.44237" lon="1.00335">
        <ele>90</ele>
        <time>2021-09-26T12:28:48.191Z</time>
      </trkpt>
      <trkpt lat="49.4425" lon="1.00333">
        <ele>91</ele>
        <time>2021-09-26T12:28:56.253Z</time>
      </trkpt>
      <trkpt lat="49.44277" lon="1.00324">
        <ele>91</ele>
        <time>2021-09-26T12:29:04.320Z</time>
      </trkpt>
      <trkpt lat="49.4429" lon="1.00319">
        <ele>92</ele>
        <time>2021-09-26T12:29:12.390Z</time>
      </trkpt>
      <trkpt lat="49.44304" lon="1.00311">
        <ele>92</ele>
        <time>2021-09-26T12:29:20.463Z</time>
      </trkpt>
      <trkpt lat="49.44308" lon="1.00311">
        <ele>93</ele>
        <time>2021-09-26T12:29:28.537Z</time>
      </trkpt>
      <trkpt lat="49.4431" lon="1.00313">
        <ele>93</ele>
        <time>2021-09-26T12:29:36.611Z</time>
      </trkpt>
      <trkpt lat="49.44312" lon="1.00329">
        <ele>94</ele>
        <time>2021-09-26T12:29:44.687Z</time>
      </trkpt>
      <trkpt lat="49.44308" lon="1.00347">
        <ele>94</ele>
        <time>2021-09-26T12:29:52.766Z</time>
      </trkpt>
      <trkpt lat="49.44305" lon="1.00389">
        <ele>95</ele>
        <time>2021-09-26T12:30:00.850Z</time>
      </trkpt>
      <trkpt lat="49.44307" lon="1.00397">
        <ele>95</ele>
        <time>2021-09-26T12:30:08.936Z</time>
      </trkpt>
      <trkpt lat="49.44309" lon="1.00399">
        <ele>95</ele>
        <time>2021-09-26T12:30:17.022Z</time>
      </trkpt>
      <trkpt lat="49.44322" lon="1.00403">
        <ele>95</ele>
        <time>2021-09-26T12:30:25.111Z</time>
      </trkpt>
      <trkpt lat="49.44329" lon="1.004">
        <ele>96</ele>
        <time>2021-09-26T12:30:33.201Z</time>
      </trkpt>
      <trkpt lat="49.44331" lon="1.00396">
        <ele>96</ele>
        <time>2021-09-26T12:30:41.292Z</time>
      </trkpt>
      <trkpt lat="49.44331" lon="1.0039">
        <ele>96</ele>
        <time>2021-09-26T12:30:49.384Z</time>
      </trkpt>
      <trkpt lat="49.44327" lon="1.00371">
        <ele>96</ele>
        <time>2021-09-26T12:30:57.478Z</time>
      </trkpt>
      <trkpt lat="49.44348" lon="1.00339">
        <ele>96</ele>
        <time>2021-09-26T12:31:05.578Z</time>
      </trkpt>
      <trkpt lat="49.44362" lon="1.00329">
        <ele>96</ele>
        <time>2021-09-26T12:31:13.681Z</time>
      </trkpt>
      <trkpt lat="49.44376" lon="1.00328">
        <ele>96</ele>
        <time>2021-09-26T12:31:21.787Z</time>
      </trkpt>
      <trkpt lat="49.44379" lon="1.00325">
        <ele>96</ele>
        <time>2021-09-26T12:31:29.894Z</time>
      </trkpt>
      <trkpt lat="49.44386" lon="1.00318">
        <ele>96</ele>
        <time>2021-09-26T12:31:38.002Z</time>
      </trkpt>
      <trkpt lat="49.44399" lon="1.00293">
        <ele>96</ele>
        <time>2021-09-26T12:31:46.115Z</time>
      </trkpt>
      <trkpt lat="49.4444" lon="1.0028">
        <ele>96</ele>
        <time>2021-09-26T12:31:54.236Z</time>
      </trkpt>
      <trkpt lat="49.44451" lon="1.00275">
        <ele>96</ele>
        <time>2021-09-26T12:32:02.359Z</time>
      </trkpt>
      <trkpt lat="49.4446" lon="1.00274">
        <ele>96</ele>
        <time>2021-09-26T12:32:10.484Z</time>
      </trkpt>
      <trkpt lat="49.44472" lon="1.00277">
        <ele>95</ele>
        <time>2021-09-26T12:32:18.611Z</time>
      </trkpt>
      <trkpt lat="49.4448" lon="1.00287">
        <ele>95</ele>
        <time>2021-09-26T12:32:26.741Z</time>
      </trkpt>
      <trkpt lat="49.44483" lon="1.00315">
        <ele>95</ele>
        <time>2021-09-26T12:32:34.874Z</time>
      </trkpt>
      <trkpt lat="49.44482" lon="1.00334">
        <ele>95</ele>
        <time>2021-09-26T12:32:43.010Z</time>
      </trkpt>
      <trkpt lat="49.44487" lon="1.00368">
        <ele>95</ele>
        <time>2021-09-26T12:32:51.150Z</time>
      </trkpt>
      <trkpt lat="49.44487" lon="1.00413">
        <ele>95</ele>
        <time>2021-09-26T12:32:59.296Z</time>
      </trkpt>
      <trkpt lat="49.44493" lon="1.00508">
        <ele>94</ele>
        <time>2021-09-26T12:33:07.455Z</time>
      </trkpt>
      <trkpt lat="49.44492" lon="1.00561">
        <ele>94</ele>
        <time>2021-09-26T12:33:15.621Z</time>
      </trkpt>
      <trkpt lat="49.4449" lon="1.00588">
        <ele>94</ele>
        <time>2021-09-26T12:33:23.790Z</time>
      </trkpt>
      <trkpt lat="49.4449" lon="1.00636">
        <ele>94</ele>
        <time>2021-09-26T12:33:31.965Z</time>
      </trkpt>
      <trkpt lat="49.44492" lon="1.00671">
        <ele>94</ele>
        <time>2021-09-26T12:33:40.145Z</time>
      </trkpt>
      <trkpt lat="49.4449" lon="1.00711">
        <ele>94</ele>
        <time>2021-09-26T12:33:48.330Z</time>
      </trkpt>
      <trkpt lat="49.44491" lon="1.00767">
        <ele>94</ele>
        <time>2021-09-26T12:33:56.523Z</time>
      </trkpt>
      <trkpt lat="49.44489" lon="1.00795">
        <ele>93</ele>
        <time>2021-09-26T12:34:04.719Z</time>
      </trkpt>
      <trkpt lat="49.44488" lon="1.00843">
        <ele>93</ele>
        <time>2021-09-26T12:34:12.921Z</time>
      </trkpt>
      <trkpt lat="49.44489" lon="1.00873">
        <ele>93</ele>
        <time>2021-09-26T12:34:21.127Z</time>
      </trkpt>
      <trkpt lat="49.44491" lon="1.00887">
        <ele>93</ele>
        <time>2021-09-26T12:34:29.335Z</time>
      </trkpt>
      <trkpt lat="49.44495" lon="1.00934">
        <ele>94</ele>
        <time>2021-09-26T12:34:37.549Z</time>
      </trkpt>
      <trkpt lat="49.44495" lon="1.00961">
        <ele>94</ele>
        <time>2021-09-26T12:34:45.767Z</time>
      </trkpt>
      <trkpt lat="49.44493" lon="1.00994">
        <ele>94</ele>
        <time>2021-09-26T12:34:53.989Z</time>
      </trkpt>
      <trkpt lat="49.44488" lon="1.01022">
        <ele>94</ele>
        <time>2021-09-26T12:35:02.215Z</time>
      </trkpt>
      <trkpt lat="49.44485" lon="1.01072">
        <ele>95</ele>
        <time>2021-09-26T12:35:10.448Z</time>
      </trkpt>
      <trkpt lat="49.44489" lon="1.01205">
        <ele>95</ele>
        <time>2021-09-26T12:35:18.698Z</time>
      </trkpt>
      <trkpt lat="49.44491" lon="1.01221">
        <ele>96</ele>
        <time>2021-09-26T12:35:26.950Z</time>
      </trkpt>
      <trkpt lat="49.44497" lon="1.01235">
        <ele>96</ele>
        <time>2021-09-26T12:35:35.204Z</time>
      </trkpt>
      <trkpt lat="49.44504" lon="1.01245">
        <ele>97</ele>
        <time>2021-09-26T12:35:43.460Z</time>
      </trkpt>
      <trkpt lat="49.44507" lon="1.01261">
        <ele>98</ele>
        <time>2021-09-26T12:35:51.718Z</time>
      </trkpt>
      <trkpt lat="49.44506" lon="1.01288">
        <ele>98</ele>
        <time>2021-09-26T12:35:59.980Z</time>
      </trkpt>
      <trkpt lat="49.44512" lon="1.01294">
        <ele>99</ele>
        <time>2021-09-26T12:36:08.243Z</time>
      </trkpt>
      <trkpt lat="49.44515" lon="1.01292">
        <ele>100</ele>
        <time>2021-09-26T12:36:16.507Z</time>
      </trkpt>
      <trkpt lat="49.44526" lon="1.0131">
        <ele>101</ele>
        <time>2021-09-26T12:36:24.774Z</time>
      </trkpt>
      <trkpt lat="49.44531" lon="1.01326">
        <ele>102</ele>
        <time>2021-09-26T12:36:33.044Z</time>
      </trkpt>
      <trkpt lat="49.44533" lon="1.01346">
        <ele>103</ele>
        <time>2021-09-26T12:36:41.316Z</time>
      </trkpt>
      <trkpt lat="49.44532" lon="1.01387">
        <ele>104</ele>
        <time>2021-09-26T12:36:49.594Z</time>
      </trkpt>
      <trkpt lat="49.4454" lon="1.01421">
        <ele>106</ele>
        <time>2021-09-26T12:36:57.876Z</time>
      </trkpt>
      <trkpt lat="49.44545" lon="1.0146">
        <ele>107</ele>
        <time>2021-09-26T12:37:06.163Z</time>
      </trkpt>
      <trkpt lat="49.44551" lon="1.01478">
        <ele>108</ele>
        <time>2021-09-26T12:37:14.453Z</time>
      </trkpt>
      <trkpt lat="49.44553" lon="1.01499">
        <ele>110</ele>
        <time>2021-09-26T12:37:22.746Z</time>
      </trkpt>
      <trkpt lat="49.4456" lon="1.01541">
        <ele>111</ele>
        <time>2021-09-26T12:37:31.045Z</time>
      </trkpt>
      <trkpt lat="49.44578" lon="1.01593">
        <ele>113</ele>
        <time>2021-09-26T12:37:39.351Z</time>
      </trkpt>
      <trkpt lat="49.44584" lon="1.01637">
        <ele>114</ele>
        <time>2021-09-26T12:37:47.663Z</time>
      </trkpt>
      <trkpt lat="49.44604" lon="1.01698">
        <ele>116</ele>
        <time>2021-09-26T12:37:55.984Z</time>
      </trkpt>
      <trkpt lat="49.4461" lon="1.01749">
        <ele>117</ele>
        <time>2021-09-26T12:38:04.312Z</time>
      </trkpt>
      <trkpt lat="49.44619" lon="1.01794">
        <ele>119</ele>
        <time>2021-09-26T12:38:12.646Z</time>
      </trkpt>
      <trkpt lat="49.4464" lon="1.01846">
        <ele>120</ele>
        <time>2021-09-26T12:38:20.988Z</time>
      </trkpt>
      <trkpt lat="49.44648" lon="1.01917">
        <ele>122</ele>
        <time>2021-09-26T12:38:29.339Z</time>
      </trkpt>
      <trkpt lat="49.44663" lon="1.01959">
        <ele>123</ele>
        <time>2021-09-26T12:38:37.696Z</time>
      </trkpt>
      <trkpt lat="49.44668" lon="1.01985">
        <ele>124</ele>
        <time>2021-09-26T12:38:46.057Z</time>
      </trkpt>
      <trkpt lat="49.44676" lon="1.01999">
        <ele>125</ele>
        <time>2021-09-26T12:38:54.420Z</time>
      </trkpt>
      <trkpt lat="49.44679" lon="1.02002">
        <ele>126</ele>
        <time>2021-09-26T12:39:02.784Z</time>
      </trkpt>
      <trkpt lat="49.44687" lon="1.02006">
        <ele>127</ele>
        <time>2021-09-26T12:39:11.150Z</time>
      </trkpt>
      <trkpt lat="49.44693" lon="1.02006">
        <ele>128</ele>
        <time>2021-09-26T12:39:19.517Z</time>
      </trkpt>
      <trkpt lat="49.447" lon="1.02001">
        <ele>128</ele>
        <time>2021-09-26T12:39:27.886Z</time>
      </trkpt>
      <trkpt lat="49.44719" lon="1.01999">
        <ele>129</ele>
        <time>2021-09-26T12:39:36.258Z</time>
      </trkpt>
      <trkpt lat="49.44728" lon="1.01985">
        <ele>129</ele>
        <time>2021-09-26T12:39:44.633Z</time>
      </trkpt>
      <trkpt lat="49.44734" lon="1.01983">
        <ele>130</ele>
        <time>2021-09-26T12:39:53.009Z</time>
      </trkpt>
      <trkpt lat="49.44747" lon="1.01985">
        <ele>130</ele>
        <time>2021-09-26T12:40:01.388Z</time>
      </trkpt>
      <trkpt lat="49.44754" lon="1.01984">
        <ele>131</ele>
        <time>2021-09-26T12:40:09.768Z</time>
      </trkpt>
      <trkpt lat="49.44763" lon="1.01978">
        <ele>131</ele>
        <time>2021-09-26T12:40:18.150Z</time>
      </trkpt>
      <trkpt lat="49.44784" lon="1.0196">
        <ele>131</ele>
        <time>2021-09-26T12:40:26.537Z</time>
      </trkpt>
      <trkpt lat="49.44834" lon="1.0193">
        <ele>131</ele>
        <time>2021-09-26T12:40:34.935Z</time>
      </trkpt>
      <trkpt lat="49.44882" lon="1.01895">
        <ele>132</ele>
        <time>2021-09-26T12:40:43.343Z</time>
      </trkpt>
      <trkpt lat="49.4495" lon="1.01819">
        <ele>132</ele>
        <time>2021-09-26T12:40:51.768Z</time>
      </trkpt>
      <trkpt lat="49.44999" lon="1.01778">
        <ele>132</ele>
        <time>2021-09-26T12:41:00.204Z</time>
      </trkpt>
      <trkpt lat="49.45021" lon="1.01758">
        <ele>132</ele>
        <time>2021-09-26T12:41:08.645Z</time>
      </trkpt>
      <trkpt lat="49.45042" lon="1.01742">
        <ele>132</ele>
        <time>2021-09-26T12:41:17.091Z</time>
      </trkpt>
      <trkpt lat="49.45063" lon="1.01731">
        <ele>132</ele>
        <time>2021-09-26T12:41:25.542Z</time>
      </trkpt>
      <trkpt lat="49.45108" lon="1.01702">
        <ele>132</ele>
        <time>2021-09-26T12:41:34.002Z</time>
      </trkpt>
      <trkpt lat="49.45144" lon="1.01686">
        <ele>132</ele>
        <time>2021-09-26T12:41:42.470Z</time>
      </trkpt>
      <trkpt lat="49.45182" lon="1.01667">
        <ele>131</ele>
        <time>2021-09-26T12:41:50.946Z</time>
      </trkpt>
      <trkpt lat="49.45209" lon="1.01651">
        <ele>131</ele>
        <time>2021-09-26T12:41:59.428Z</time>
      </trkpt>
      <trkpt lat="49.45232" lon="1.0164">
        <ele>131</ele>
        <time>2021-09-26T12:42:07.914Z</time>
      </trkpt>
      <trkpt lat="49.45279" lon="1.01611">
        <ele>131</ele>
        <time>2021-09-26T12:42:16.411Z</time>
      </trkpt>
      <trkpt lat="49.45287" lon="1.01609">
        <ele>131</ele>
        <time>2021-09-26T12:42:24.909Z</time>
      </trkpt>
      <trkpt lat="49.45317" lon="1.01609">
        <ele>131</ele>
        <time>2021-09-26T12:42:33.413Z</time>
      </trkpt>
      <trkpt lat="49.45333" lon="1.01603">
        <ele>131</ele>
        <time>2021-09-26T12:42:41.920Z</time>
      </trkpt>
      <trkpt lat="49.45356" lon="1.01592">
        <ele>131</ele>
        <time>2021-09-26T12:42:50.432Z</time>
      </trkpt>
      <trkpt lat="49.45381" lon="1.01576">
        <ele>131</ele>
        <time>2021-09-26T12:42:58.950Z</time>
      </trkpt>
      <trkpt lat="49.45417" lon="1.01542">
        <ele>131</ele>
        <time>2021-09-26T12:43:07.476Z</time>
      </trkpt>
      <trkpt lat="49.45432" lon="1.01522">
        <ele>131</ele>
        <time>2021-09-26T12:43:16.006Z</time>
      </trkpt>
      <trkpt lat="49.45447" lon="1.01506">
        <ele>131</ele>
        <time>2021-09-26T12:43:24.540Z</time>
      </trkpt>
      <trkpt lat="49.45455" lon="1.01503">
        <ele>132</ele>
        <time>2021-09-26T12:43:33.076Z</time>
      </trkpt>
      <trkpt lat="49.45474" lon="1.01504">
        <ele>132</ele>
        <time>2021-09-26T12:43:41.615Z</time>
      </trkpt>
      <trkpt lat="49.45509" lon="1.01508">
        <ele>132</ele>
        <time>2021-09-26T12:43:50.161Z</time>
      </trkpt>
      <trkpt lat="49.45601" lon="1.01529">
        <ele>132</ele>
        <time>2021-09-26T12:43:58.726Z</time>
      </trkpt>
      <trkpt lat="49.4561" lon="1.01532">
        <ele>133</ele>
        <time>2021-09-26T12:44:07.293Z</time>
      </trkpt>
      <trkpt lat="49.45616" lon="1.01538">
        <ele>133</ele>
        <time>2021-09-26T12:44:15.861Z</time>
      </trkpt>
      <trkpt lat="49.45621" lon="1.01546">
        <ele>133</ele>
        <time>2021-09-26T12:44:24.431Z</time>
      </trkpt>
      <trkpt lat="49.45623" lon="1.01556">
        <ele>134</ele>
        <time>2021-09-26T12:44:33.002Z</time>
      </trkpt>
      <trkpt lat="49.45624" lon="1.01615">
        <ele>134</ele>
        <time>2021-09-26T12:44:41.581Z</time>
      </trkpt>
      <trkpt lat="49.45621" lon="1.01648">
        <ele>135</ele>
        <time>2021-09-26T12:44:50.164Z</time>
      </trkpt>
      <trkpt lat="49.45618" lon="1.01671">
        <ele>135</ele>
        <time>2021-09-26T12:44:58.750Z</time>
      </trkpt>
      <trkpt lat="49.45616" lon="1.01681">
        <ele>136</ele>
        <time>2021-09-26T12:45:07.338Z</time>
      </trkpt>
      <trkpt lat="49.45607" lon="1.01703">
        <ele>136</ele>
        <time>2021-09-26T12:45:15.929Z</time>
      </trkpt>
      <trkpt lat="49.45605" lon="1.01714">
        <ele>137</ele>
        <time>2021-09-26T12:45:24.521Z</time>
      </trkpt>
      <trkpt lat="49.4561" lon="1.01762">
        <ele>137</ele>
        <time>2021-09-26T12:45:33.120Z</time>
      </trkpt>
      <trkpt lat="49.45611" lon="1.01782">
        <ele>138</ele>
        <time>2021-09-26T12:45:41.721Z</time>
      </trkpt>
      <trkpt lat="49.45606" lon="1.01802">
        <ele>139</ele>
        <time>2021-09-26T12:45:50.325Z</time>
      </trkpt>
      <trkpt lat="49.45595" lon="1.01874">
        <ele>139</ele>
        <time>2021-09-26T12:45:58.939Z</time>
      </trkpt>
      <trkpt lat="49.45589" lon="1.019">
        <ele>140</ele>
        <time>2021-09-26T12:46:07.556Z</time>
      </trkpt>
      <trkpt lat="49.45587" lon="1.01924">
        <ele>140</ele>
        <time>2021-09-26T12:46:16.177Z</time>
      </trkpt>
      <trkpt lat="49.45584" lon="1.01937">
        <ele>141</ele>
        <time>2021-09-26T12:46:24.799Z</time>
      </trkpt>
      <trkpt lat="49.45577" lon="1.01958">
        <ele>141</ele>
        <time>2021-09-26T12:46:33.424Z</time>
      </trkpt>
      <trkpt lat="49.45572" lon="1.01967">
        <ele>142</ele>
        <time>2021-09-26T12:46:42.051Z</time>
      </trkpt>
      <trkpt lat="49.45561" lon="1.01975">
        <ele>142</ele>
        <time>2021-09-26T12:46:50.680Z</time>
      </trkpt>
      <trkpt lat="49.45553" lon="1.01995">
        <ele>142</ele>
        <time>2021-09-26T12:46:59.312Z</time>
      </trkpt>
      <trkpt lat="49.45541" lon="1.02035">
        <ele>143</ele>
        <time>2021-09-26T12:47:07.950Z</time>
      </trkpt>
      <trkpt lat="49.45537" lon="1.02043">
        <ele>143</ele>
        <time>2021-09-26T12:47:16.590Z</time>
      </trkpt>
      <trkpt lat="49.45531" lon="1.02049">
        <ele>143</ele>
        <time>2021-09-26T12:47:25.231Z</time>
      </trkpt>
      <trkpt lat="49.45527" lon="1.02059">
        <ele>143</ele>
        <time>2021-09-26T12:47:33.874Z</time>
      </trkpt>
      <trkpt lat="49.45514" lon="1.02117">
        <ele>143</ele>
        <time>2021-09-26T12:47:42.525Z</time>
      </trkpt>
      <trkpt lat="49.45497" lon="1.02182">
        <ele>143</ele>
        <time>2021-09-26T12:47:51.185Z</time>
      </trkpt>
      <trkpt lat="49.45493" lon="1.02227">
        <ele>143</ele>
        <time>2021-09-26T12:47:59.851Z</time>
      </trkpt>
      <trkpt lat="49.4549" lon="1.02242">
        <ele>143</ele>
        <time>2021-09-26T12:48:08.519Z</time>
      </trkpt>
      <trkpt lat="49.45484" lon="1.02254">
        <ele>143</ele>
        <time>2021-09-26T12:48:17.189Z</time>
      </trkpt>
      <trkpt lat="49.45475" lon="1.02262">
        <ele>143</ele>
        <time>2021-09-26T12:48:25.861Z</time>
      </trkpt>
      <trkpt lat="49.45466" lon="1.02266">
        <ele>142</ele>
        <time>2021-09-26T12:48:34.535Z</time>
      </trkpt>
      <trkpt lat="49.45448" lon="1.02269">
        <ele>142</ele>
        <time>2021-09-26T12:48:43.212Z</time>
      </trkpt>
      <trkpt lat="49.45438" lon="1.02272">
        <ele>142</ele>
        <time>2021-09-26T12:48:51.891Z</time>
      </trkpt>
      <trkpt lat="49.45429" lon="1.02278">
        <ele>142</ele>
        <time>2021-09-26T12:49:00.572Z</time>
      </trkpt>
      <trkpt lat="49.45422" lon="1.02288">
        <ele>142</ele>
        <time>2021-09-26T12:49:09.255Z</time>
      </trkpt>
      <trkpt lat="49.45407" lon="1.02315">
        <ele>141</ele>
        <time>2021-09-26T12:49:17.943Z</time>
      </trkpt>
      <trkpt lat="49.454" lon="1.0233">
        <ele>141</ele>
        <time>2021-09-26T12:49:26.633Z</time>
      </trkpt>
      <trkpt lat="49.45397" lon="1.02346">
        <ele>141</ele>
        <time>2021-09-26T12:49:35.325Z</time>
      </trkpt>
      <trkpt lat="49.45395" lon="1.0238">
        <ele>141</ele>
        <time>2021-09-26T12:49:44.022Z</time>
      </trkpt>
      <trkpt lat="49.45402" lon="1.02425">
        <ele>142</ele>
        <time>2021-09-26T12:49:52.725Z</time>
      </trkpt>
      <trkpt lat="49.45411" lon="1.02464">
        <ele>141</ele>
        <time>2021-09-26T12:50:01.433Z</time>
      </trkpt>
      <trkpt lat="49.4541" lon="1.0248">
        <ele>141</ele>
        <time>2021-09-26T12:50:10.143Z</time>
      </trkpt>
      <trkpt lat="49.454" lon="1.02526">
        <ele>141</ele>
        <time>2021-09-26T12:50:18.860Z</time>
      </trkpt>
      <trkpt lat="49.45391" lon="1.02553">
        <ele>141</ele>
        <time>2021-09-26T12:50:27.581Z</time>
      </trkpt>
      <trkpt lat="49.45389" lon="1.02565">
        <ele>140</ele>
        <time>2021-09-26T12:50:36.303Z</time>
      </trkpt>
      <trkpt lat="49.45389" lon="1.02609">
        <ele>140</ele>
        <time>2021-09-26T12:50:45.031Z</time>
      </trkpt>
      <trkpt lat="49.45381" lon="1.02687">
        <ele>139</ele>
        <time>2021-09-26T12:50:53.769Z</time>
      </trkpt>
      <trkpt lat="49.45366" lon="1.02755">
        <ele>139</ele>
        <time>2021-09-26T12:51:02.517Z</time>
      </trkpt>
      <trkpt lat="49.45352" lon="1.02869">
        <ele>138</ele>
        <time>2021-09-26T12:51:11.280Z</time>
      </trkpt>
      <trkpt lat="49.45343" lon="1.02911">
        <ele>138</ele>
        <time>2021-09-26T12:51:20.049Z</time>
      </trkpt>
      <trkpt lat="49.45337" lon="1.02956">
        <ele>137</ele>
        <time>2021-09-26T12:51:28.824Z</time>
      </trkpt>
      <trkpt lat="49.45312" lon="1.0308">
        <ele>136</ele>
        <time>2021-09-26T12:51:37.615Z</time>
      </trkpt>
      <trkpt lat="49.45313" lon="1.0311">
        <ele>136</ele>
        <time>2021-09-26T12:51:46.410Z</time>
      </trkpt>
      <trkpt lat="49.45311" lon="1.03122">
        <ele>135</ele>
        <time>2021-09-26T12:51:55.207Z</time>
      </trkpt>
      <trkpt lat="49.45305" lon="1.03127">
        <ele>134</ele>
        <time>2021-09-26T12:52:04.005Z</time>
      </trkpt>
      <trkpt lat="49.45299" lon="1.03124">
        <ele>134</ele>
        <time>2021-09-26T12:52:12.805Z</time>
      </trkpt>
      <trkpt lat="49.45291" lon="1.03118">
        <ele>133</ele>
        <time>2021-09-26T12:52:21.606Z</time>
      </trkpt>
      <trkpt lat="49.45275" lon="1.03098">
        <ele>133</ele>
        <time>2021-09-26T12:52:30.412Z</time>
      </trkpt>
      <trkpt lat="49.45216" lon="1.03071">
        <ele>130</ele>
        <time>2021-09-26T10:46:23.020Z</time>
      </trkpt>
    </trkseg>
  </trk>
</gpx>